Wetterdaten: Mittwoch, 30.10.2013
Datum Zeit Temp. Aussen +5cm Feuchte Auss Luftdruck Regen Sonnenschein Regendauer UV Solar Windben
30.10.2013 00:00 7,8 C 6,7 C 92 % 1016,6 hPa 0,0 l/m 0 min 0 min 0,0 UV-I 0 W/m 2,6 km/h (1 Bft)
30.10.2013 00:02 7,8 C 6,7 C 92 % 1016,6 hPa 0,0 l/m 0 min 0 min 0,0 UV-I 0 W/m 2,6 km/h (1 Bft)
30.10.2013 00:06 7,9 C 6,7 C 92 % 1016,6 hPa 0,0 l/m 0 min 0 min 0,0 UV-I 0 W/m 5,1 km/h (1 Bft)
30.10.2013 00:08 7,9 C 6,7 C 92 % 1016,6 hPa 0,0 l/m 0 min 0 min 0,0 UV-I 0 W/m 10,3 km/h (2 Bft)
30.10.2013 00:10 7,9 C 6,7 C 92 % 1016,7 hPa 0,0 l/m 0 min 0 min 0,0 UV-I 0 W/m 2,6 km/h (1 Bft)
30.10.2013 00:12 7,9 C 6,7 C 92 % 1016,8 hPa 0,0 l/m 0 min 0 min 0,0 UV-I 0 W/m 0,0 km/h (0 Bft)
30.10.2013 00:14 7,9 C 7,2 C 92 % 1016,8 hPa 0,0 l/m 0 min 0 min 0,0 UV-I 0 W/m 7,7 km/h (2 Bft)
30.10.2013 00:16 7,9 C 7,2 C 92 % 1016,7 hPa 0,0 l/m 0 min 0 min 0,0 UV-I 0 W/m 7,7 km/h (2 Bft)
30.10.2013 00:18 7,9 C 7,2 C 92 % 1016,7 hPa 0,0 l/m 0 min 0 min 0,0 UV-I 0 W/m 2,6 km/h (1 Bft)
30.10.2013 00:20 8,0 C 7,2 C 92 % 1016,7 hPa 0,0 l/m 0 min 0 min 0,0 UV-I 0 W/m 0,0 km/h (0 Bft)
30.10.2013 00:22 8,0 C 7,2 C 92 % 1016,8 hPa 0,0 l/m 0 min 0 min 0,0 UV-I 0 W/m 5,1 km/h (1 Bft)
30.10.2013 00:24 8,1 C 7,2 C 92 % 1016,9 hPa 0,0 l/m 0 min 0 min 0,0 UV-I 0 W/m 5,1 km/h (1 Bft)
30.10.2013 00:26 8,1 C 7,2 C 92 % 1016,9 hPa 0,0 l/m 0 min 0 min 0,0 UV-I 0 W/m 2,6 km/h (1 Bft)
30.10.2013 00:28 8,1 C 7,2 C 92 % 1016,9 hPa 0,0 l/m 0 min 0 min 0,0 UV-I 0 W/m 5,1 km/h (1 Bft)
30.10.2013 00:30 8,1 C 7,2 C 92 % 1016,9 hPa 0,0 l/m 0 min 0 min 0,0 UV-I 0 W/m 2,6 km/h (1 Bft)
30.10.2013 00:32 8,1 C 7,2 C 92 % 1016,9 hPa 0,0 l/m 0 min 0 min 0,0 UV-I 0 W/m 7,7 km/h (2 Bft)
30.10.2013 00:34 8,1 C 6,7 C 92 % 1016,9 hPa 0,0 l/m 0 min 0 min 0,0 UV-I 0 W/m 2,6 km/h (1 Bft)
30.10.2013 00:36 8,1 C 6,7 C 92 % 1016,9 hPa 0,0 l/m 0 min 0 min 0,0 UV-I 0 W/m 5,1 km/h (1 Bft)
30.10.2013 00:38 8,1 C 7,2 C 92 % 1017,0 hPa 0,0 l/m 0 min 0 min 0,0 UV-I 0 W/m 2,6 km/h (1 Bft)
30.10.2013 00:40 8,1 C 7,2 C 92 % 1017,0 hPa 0,0 l/m 0 min 0 min 0,0 UV-I 0 W/m 5,1 km/h (1 Bft)
30.10.2013 00:42 8,1 C 7,2 C 92 % 1017,0 hPa 0,0 l/m 0 min 0 min 0,0 UV-I 0 W/m 12,9 km/h (3 Bft)
30.10.2013 00:44 8,1 C 7,2 C 92 % 1017,2 hPa 0,0 l/m 0 min 0 min 0,0 UV-I 0 W/m 10,3 km/h (2 Bft)
30.10.2013 00:46 8,1 C 6,7 C 92 % 1017,1 hPa 0,0 l/m 0 min 0 min 0,0 UV-I 0 W/m 0,0 km/h (0 Bft)
30.10.2013 00:48 8,0 C 6,7 C 92 % 1017,2 hPa 0,0 l/m 0 min 0 min 0,0 UV-I 0 W/m 7,7 km/h (2 Bft)
30.10.2013 00:50 8,0 C 6,7 C 92 % 1017,1 hPa 0,0 l/m 0 min 0 min 0,0 UV-I 0 W/m 2,6 km/h (1 Bft)
30.10.2013 00:52 7,9 C 6,7 C 92 % 1017,1 hPa 0,0 l/m 0 min 0 min 0,0 UV-I 0 W/m 0,0 km/h (0 Bft)
30.10.2013 00:54 7,9 C 6,7 C 92 % 1017,2 hPa 0,0 l/m 0 min 0 min 0,0 UV-I 0 W/m 5,1 km/h (1 Bft)
30.10.2013 00:56 7,9 C 6,7 C 92 % 1017,2 hPa 0,0 l/m 0 min 0 min 0,0 UV-I 0 W/m 0,0 km/h (0 Bft)
30.10.2013 00:58 7,9 C 6,7 C 92 % 1017,2 hPa 0,0 l/m 0 min 0 min 0,0 UV-I 0 W/m 10,3 km/h (2 Bft)
30.10.2013 01:00 7,9 C 6,7 C 92 % 1017,2 hPa 0,0 l/m 0 min 0 min 0,0 UV-I 0 W/m 7,7 km/h (2 Bft)
30.10.2013 01:02 7,8 C 6,7 C 92 % 1017,2 hPa 0,0 l/m 0 min 0 min 0,0 UV-I 0 W/m 0,0 km/h (0 Bft)
30.10.2013 01:06 7,7 C 6,7 C 92 % 1017,2 hPa 0,0 l/m 0 min 0 min 0,0 UV-I 0 W/m 0,0 km/h (0 Bft)
30.10.2013 01:08 7,7 C 6,7 C 92 % 1017,3 hPa 0,0 l/m 0 min 0 min 0,0 UV-I 0 W/m 0,0 km/h (0 Bft)
30.10.2013 01:10 7,7 C 6,7 C 92 % 1017,3 hPa 0,0 l/m 0 min 0 min 0,0 UV-I 0 W/m 0,0 km/h (0 Bft)
30.10.2013 01:12 7,7 C 6,7 C 92 % 1017,3 hPa 0,0 l/m 0 min 0 min 0,0 UV-I 0 W/m 0,0 km/h (0 Bft)
30.10.2013 01:14 7,7 C 6,7 C 92 % 1017,3 hPa 0,0 l/m 0 min 0 min 0,0 UV-I 0 W/m 0,0 km/h (0 Bft)
30.10.2013 01:16 7,7 C 6,7 C 92 % 1017,3 hPa 0,0 l/m 0 min 0 min 0,0 UV-I 0 W/m 0,0 km/h (0 Bft)
30.10.2013 01:18 7,7 C 6,7 C 92 % 1017,4 hPa 0,0 l/m 0 min 0 min 0,0 UV-I 0 W/m 0,0 km/h (0 Bft)
30.10.2013 01:20 7,6 C 6,7 C 92 % 1017,3 hPa 0,0 l/m 0 min 0 min 0,0 UV-I 0 W/m 2,6 km/h (1 Bft)
30.10.2013 01:22 7,6 C 6,7 C 92 % 1017,3 hPa 0,0 l/m 0 min 0 min 0,0 UV-I 0 W/m 7,7 km/h (2 Bft)
30.10.2013 01:24 7,6 C 6,1 C 93 % 1017,4 hPa 0,0 l/m 0 min 0 min 0,0 UV-I 0 W/m 0,0 km/h (0 Bft)
30.10.2013 01:26 7,5 C 6,1 C 93 % 1017,4 hPa 0,0 l/m 0 min 0 min 0,0 UV-I 0 W/m 2,6 km/h (1 Bft)
30.10.2013 01:28 7,5 C 6,1 C 93 % 1017,4 hPa 0,0 l/m 0 min 0 min 0,0 UV-I 0 W/m 2,6 km/h (1 Bft)
30.10.2013 01:30 7,4 C 6,1 C 93 % 1017,4 hPa 0,0 l/m 0 min 0 min 0,0 UV-I 0 W/m 0,0 km/h (0 Bft)
30.10.2013 01:32 7,4 C 6,1 C 93 % 1017,5 hPa 0,0 l/m 0 min 0 min 0,0 UV-I 0 W/m 0,0 km/h (0 Bft)
30.10.2013 01:34 7,4 C 6,1 C 93 % 1017,5 hPa 0,0 l/m 0 min 0 min 0,0 UV-I 0 W/m 0,0 km/h (0 Bft)
30.10.2013 01:36 7,4 C 6,1 C 93 % 1017,5 hPa 0,0 l/m 0 min 0 min 0,0 UV-I 0 W/m 0,0 km/h (0 Bft)
30.10.2013 01:38 7,4 C 6,1 C 93 % 1017,5 hPa 0,0 l/m 0 min 0 min 0,0 UV-I 0 W/m 2,6 km/h (1 Bft)
30.10.2013 01:40 7,4 C 6,1 C 93 % 1017,5 hPa 0,0 l/m 0 min 0 min 0,0 UV-I 0 W/m 0,0 km/h (0 Bft)
30.10.2013 01:42 7,4 C 6,1 C 93 % 1017,6 hPa 0,0 l/m 0 min 0 min 0,0 UV-I 0 W/m 0,0 km/h (0 Bft)
30.10.2013 01:44 7,3 C 6,1 C 93 % 1017,6 hPa 0,0 l/m 0 min 0 min 0,0 UV-I 0 W/m 7,7 km/h (2 Bft)
30.10.2013 01:46 7,3 C 6,1 C 93 % 1017,7 hPa 0,0 l/m 0 min 0 min 0,0 UV-I 0 W/m 7,7 km/h (2 Bft)
30.10.2013 01:48 7,3 C 6,1 C 93 % 1017,6 hPa 0,0 l/m 0 min 0 min 0,0 UV-I 0 W/m 0,0 km/h (0 Bft)
30.10.2013 01:50 7,3 C 6,1 C 93 % 1017,7 hPa 0,0 l/m 0 min 0 min 0,0 UV-I 0 W/m 0,0 km/h (0 Bft)
30.10.2013 01:52 7,3 C 6,1 C 93 % 1017,6 hPa 0,0 l/m 0 min 0 min 0,0 UV-I 0 W/m 12,9 km/h (3 Bft)
30.10.2013 01:54 7,3 C 6,1 C 94 % 1017,7 hPa 0,0 l/m 0 min 0 min 0,0 UV-I 0 W/m 7,7 km/h (2 Bft)
30.10.2013 01:56 7,3 C 6,1 C 94 % 1017,7 hPa 0,0 l/m 0 min 0 min 0,0 UV-I 0 W/m 0,0 km/h (0 Bft)
30.10.2013 01:58 7,3 C 6,1 C 94 % 1017,6 hPa 0,0 l/m 0 min 0 min 0,0 UV-I 0 W/m 2,6 km/h (1 Bft)
30.10.2013 02:00 7,2 C 6,1 C 94 % 1017,7 hPa 0,0 l/m 0 min 0 min 0,0 UV-I 0 W/m 0,0 km/h (0 Bft)
30.10.2013 02:02 7,2 C 6,1 C 94 % 1017,7 hPa 0,0 l/m 0 min 0 min 0,0 UV-I 0 W/m 0,0 km/h (0 Bft)
30.10.2013 02:06 7,3 C 6,1 C 94 % 1017,7 hPa 0,0 l/m 0 min 0 min 0,0 UV-I 0 W/m 7,7 km/h (2 Bft)
30.10.2013 02:08 7,3 C 6,1 C 94 % 1017,6 hPa 0,0 l/m 0 min 0 min 0,0 UV-I 0 W/m 7,7 km/h (2 Bft)
30.10.2013 02:10 7,3 C 6,1 C 94 % 1017,7 hPa 0,0 l/m 0 min 0 min 0,0 UV-I 0 W/m 0,0 km/h (0 Bft)
30.10.2013 02:12 7,3 C 6,1 C 94 % 1017,7 hPa 0,0 l/m 0 min 0 min 0,0 UV-I 0 W/m 10,3 km/h (2 Bft)
30.10.2013 02:14 7,3 C 6,1 C 94 % 1017,7 hPa 0,0 l/m 0 min 0 min 0,0 UV-I 0 W/m 0,0 km/h (0 Bft)
30.10.2013 02:16 7,3 C 6,1 C 94 % 1017,7 hPa 0,0 l/m 0 min 0 min 0,0 UV-I 0 W/m 7,7 km/h (2 Bft)
30.10.2013 02:18 7,3 C 6,1 C 94 % 1017,8 hPa 0,0 l/m 0 min 0 min 0,0 UV-I 0 W/m 0,0 km/h (0 Bft)
30.10.2013 02:20 7,3 C 6,1 C 94 % 1017,8 hPa 0,0 l/m 0 min 0 min 0,0 UV-I 0 W/m 5,1 km/h (1 Bft)
30.10.2013 02:22 7,3 C 6,1 C 94 % 1017,8 hPa 0,0 l/m 0 min 0 min 0,0 UV-I 0 W/m 7,7 km/h (2 Bft)
30.10.2013 02:24 7,3 C 6,1 C 94 % 1017,8 hPa 0,0 l/m 0 min 0 min 0,0 UV-I 0 W/m 10,3 km/h (2 Bft)
30.10.2013 02:26 7,3 C 6,1 C 94 % 1017,8 hPa 0,0 l/m 0 min 0 min 0,0 UV-I 0 W/m 5,1 km/h (1 Bft)
30.10.2013 02:28 7,3 C 6,1 C 94 % 1017,9 hPa 0,0 l/m 0 min 0 min 0,0 UV-I 0 W/m 5,1 km/h (1 Bft)
30.10.2013 02:30 7,3 C 6,1 C 94 % 1017,9 hPa 0,0 l/m 0 min 0 min 0,0 UV-I 0 W/m 15,4 km/h (3 Bft)
30.10.2013 02:32 7,3 C 6,1 C 94 % 1018,0 hPa 0,0 l/m 0 min 0 min 0,0 UV-I 0 W/m 5,1 km/h (1 Bft)
30.10.2013 02:34 7,3 C 6,1 C 94 % 1017,9 hPa 0,0 l/m 0 min 0 min 0,0 UV-I 0 W/m 2,6 km/h (1 Bft)
30.10.2013 02:36 7,3 C 6,1 C 94 % 1017,9 hPa 0,0 l/m 0 min 0 min 0,0 UV-I 0 W/m 7,7 km/h (2 Bft)
30.10.2013 02:38 7,3 C 6,1 C 94 % 1018,0 hPa 0,0 l/m 0 min 0 min 0,0 UV-I 0 W/m 10,3 km/h (2 Bft)
30.10.2013 02:40 7,2 C 6,1 C 94 % 1018,0 hPa 0,0 l/m 0 min 0 min 0,0 UV-I 0 W/m 0,0 km/h (0 Bft)
30.10.2013 02:42 7,2 C 6,1 C 94 % 1018,1 hPa 0,0 l/m 0 min 0 min 0,0 UV-I 0 W/m 5,1 km/h (1 Bft)
30.10.2013 02:44 7,2 C 6,1 C 94 % 1018,0 hPa 0,0 l/m 0 min 0 min 0,0 UV-I 0 W/m 0,0 km/h (0 Bft)
30.10.2013 02:46 7,2 C 6,1 C 94 % 1018,1 hPa 0,0 l/m 0 min 0 min 0,0 UV-I 0 W/m 7,7 km/h (2 Bft)
30.10.2013 02:48 7,2 C 6,1 C 94 % 1018,1 hPa 0,0 l/m 0 min 0 min 0,0 UV-I 0 W/m 15,4 km/h (3 Bft)
30.10.2013 02:50 7,3 C 6,1 C 94 % 1018,1 hPa 0,0 l/m 0 min 0 min 0,0 UV-I 0 W/m 0,0 km/h (0 Bft)
30.10.2013 02:52 7,3 C 6,1 C 94 % 1018,2 hPa 0,0 l/m 0 min 0 min 0,0 UV-I 0 W/m 7,7 km/h (2 Bft)
30.10.2013 02:54 7,3 C 6,1 C 94 % 1018,1 hPa 0,0 l/m 0 min 0 min 0,0 UV-I 0 W/m 7,7 km/h (2 Bft)
30.10.2013 02:56 7,3 C 6,1 C 94 % 1018,1 hPa 0,0 l/m 0 min 0 min 0,0 UV-I 0 W/m 15,4 km/h (3 Bft)
30.10.2013 02:58 7,3 C 6,1 C 94 % 1018,1 hPa 0,0 l/m 0 min 0 min 0,0 UV-I 0 W/m 0,0 km/h (0 Bft)
30.10.2013 03:00 7,3 C 6,1 C 93 % 1018,1 hPa 0,0 l/m 0 min 0 min 0,0 UV-I 0 W/m 10,3 km/h (2 Bft)
30.10.2013 03:02 7,3 C 6,1 C 93 % 1018,1 hPa 0,0 l/m 0 min 0 min 0,0 UV-I 0 W/m 0,0 km/h (0 Bft)
30.10.2013 03:06 7,3 C 6,1 C 93 % 1018,1 hPa 0,0 l/m 0 min 0 min 0,0 UV-I 0 W/m 7,7 km/h (2 Bft)
30.10.2013 03:08 7,3 C 6,1 C 93 % 1018,2 hPa 0,0 l/m 0 min 0 min 0,0 UV-I 0 W/m 10,3 km/h (2 Bft)
30.10.2013 03:10 7,3 C 6,1 C 93 % 1018,1 hPa 0,0 l/m 0 min 0 min 0,0 UV-I 0 W/m 10,3 km/h (2 Bft)
30.10.2013 03:12 7,4 C 6,1 C 93 % 1018,1 hPa 0,0 l/m 0 min 0 min 0,0 UV-I 0 W/m 7,7 km/h (2 Bft)
30.10.2013 03:14 7,4 C 6,1 C 93 % 1018,2 hPa 0,0 l/m 0 min 0 min 0,0 UV-I 0 W/m 5,1 km/h (1 Bft)
30.10.2013 03:16 7,4 C 6,1 C 93 % 1018,2 hPa 0,0 l/m 0 min 0 min 0,0 UV-I 0 W/m 7,7 km/h (2 Bft)
30.10.2013 03:18 7,4 C 6,7 C 93 % 1018,2 hPa 0,0 l/m 0 min 0 min 0,0 UV-I 0 W/m 0,0 km/h (0 Bft)
30.10.2013 03:20 7,4 C 6,7 C 93 % 1018,2 hPa 0,0 l/m 0 min 0 min 0,0 UV-I 0 W/m 2,6 km/h (1 Bft)
30.10.2013 03:22 7,4 C 6,7 C 93 % 1018,3 hPa 0,0 l/m 0 min 0 min 0,0 UV-I 0 W/m 0,0 km/h (0 Bft)
30.10.2013 03:24 7,4 C 6,7 C 93 % 1018,3 hPa 0,0 l/m 0 min 0 min 0,0 UV-I 0 W/m 0,0 km/h (0 Bft)
30.10.2013 03:26 7,4 C 6,7 C 93 % 1018,3 hPa 0,0 l/m 0 min 0 min 0,0 UV-I 0 W/m 0,0 km/h (0 Bft)
30.10.2013 03:28 7,4 C 6,7 C 93 % 1018,4 hPa 0,0 l/m 0 min 0 min 0,0 UV-I 0 W/m 5,1 km/h (1 Bft)
30.10.2013 03:30 7,5 C 6,7 C 93 % 1018,3 hPa 0,0 l/m 0 min 0 min 0,0 UV-I 0 W/m 7,7 km/h (2 Bft)
30.10.2013 03:32 7,5 C 6,7 C 93 % 1018,3 hPa 0,0 l/m 0 min 0 min 0,0 UV-I 0 W/m 5,1 km/h (1 Bft)
30.10.2013 03:34 7,5 C 6,7 C 92 % 1018,4 hPa 0,0 l/m 0 min 0 min 0,0 UV-I 0 W/m 5,1 km/h (1 Bft)
30.10.2013 03:36 7,5 C 6,7 C 92 % 1018,3 hPa 0,0 l/m 0 min 0 min 0,0 UV-I 0 W/m 2,6 km/h (1 Bft)
30.10.2013 03:38 7,5 C 6,7 C 92 % 1018,3 hPa 0,0 l/m 0 min 0 min 0,0 UV-I 0 W/m 5,1 km/h (1 Bft)
30.10.2013 03:40 7,5 C 6,1 C 92 % 1018,3 hPa 0,0 l/m 0 min 0 min 0,0 UV-I 0 W/m 15,4 km/h (3 Bft)
30.10.2013 03:42 7,5 C 6,1 C 92 % 1018,4 hPa 0,0 l/m 0 min 0 min 0,0 UV-I 0 W/m 7,7 km/h (2 Bft)
30.10.2013 03:44 7,5 C 6,1 C 92 % 1018,4 hPa 0,0 l/m 0 min 0 min 0,0 UV-I 0 W/m 0,0 km/h (0 Bft)
30.10.2013 03:46 7,4 C 6,1 C 92 % 1018,3 hPa 0,0 l/m 0 min 0 min 0,0 UV-I 0 W/m 10,3 km/h (2 Bft)
30.10.2013 03:48 7,4 C 6,1 C 92 % 1018,4 hPa 0,0 l/m 0 min 0 min 0,0 UV-I 0 W/m 12,9 km/h (3 Bft)
30.10.2013 03:50 7,4 C 6,1 C 92 % 1018,4 hPa 0,0 l/m 0 min 0 min 0,0 UV-I 0 W/m 5,1 km/h (1 Bft)
30.10.2013 03:52 7,4 C 6,1 C 92 % 1018,4 hPa 0,0 l/m 0 min 0 min 0,0 UV-I 0 W/m 0,0 km/h (0 Bft)
30.10.2013 03:54 7,3 C 6,1 C 92 % 1018,4 hPa 0,0 l/m 0 min 0 min 0,0 UV-I 0 W/m 7,7 km/h (2 Bft)
30.10.2013 03:56 7,4 C 6,1 C 92 % 1018,4 hPa 0,0 l/m 0 min 0 min 0,0 UV-I 0 W/m 7,7 km/h (2 Bft)
30.10.2013 03:58 7,3 C 6,1 C 92 % 1018,4 hPa 0,0 l/m 0 min 0 min 0,0 UV-I 0 W/m 0,0 km/h (0 Bft)
30.10.2013 04:00 7,3 C 6,1 C 92 % 1018,5 hPa 0,0 l/m 0 min 0 min 0,0 UV-I 0 W/m 5,1 km/h (1 Bft)
30.10.2013 04:02 7,3 C 6,1 C 92 % 1018,4 hPa 0,0 l/m 0 min 0 min 0,0 UV-I 0 W/m 0,0 km/h (0 Bft)
30.10.2013 04:06 7,3 C 6,1 C 92 % 1018,5 hPa 0,0 l/m 0 min 0 min 0,0 UV-I 0 W/m 12,9 km/h (3 Bft)
30.10.2013 04:08 7,3 C 6,1 C 92 % 1018,5 hPa 0,0 l/m 0 min 0 min 0,0 UV-I 0 W/m 10,3 km/h (2 Bft)
30.10.2013 04:10 7,3 C 6,1 C 92 % 1018,5 hPa 0,0 l/m 0 min 0 min 0,0 UV-I 0 W/m 2,6 km/h (1 Bft)
30.10.2013 04:12 7,3 C 6,1 C 92 % 1018,7 hPa 0,0 l/m 0 min 0 min 0,0 UV-I 0 W/m 7,7 km/h (2 Bft)
30.10.2013 04:14 7,3 C 6,1 C 92 % 1018,6 hPa 0,0 l/m 0 min 0 min 0,0 UV-I 0 W/m 7,7 km/h (2 Bft)
30.10.2013 04:16 7,3 C 6,1 C 92 % 1018,7 hPa 0,0 l/m 0 min 0 min 0,0 UV-I 0 W/m 5,1 km/h (1 Bft)
30.10.2013 04:18 7,3 C 6,1 C 92 % 1018,7 hPa 0,0 l/m 0 min 0 min 0,0 UV-I 0 W/m 12,9 km/h (3 Bft)
30.10.2013 04:20 7,3 C 6,1 C 91 % 1018,7 hPa 0,0 l/m 0 min 0 min 0,0 UV-I 0 W/m 7,7 km/h (2 Bft)
30.10.2013 04:22 7,3 C 6,1 C 91 % 1018,8 hPa 0,0 l/m 0 min 0 min 0,0 UV-I 0 W/m 5,1 km/h (1 Bft)
30.10.2013 04:24 7,2 C 6,1 C 91 % 1018,8 hPa 0,0 l/m 0 min 0 min 0,0 UV-I 0 W/m 0,0 km/h (0 Bft)
30.10.2013 04:26 7,2 C 6,1 C 91 % 1018,8 hPa 0,0 l/m 0 min 0 min 0,0 UV-I 0 W/m 0,0 km/h (0 Bft)
30.10.2013 04:28 7,2 C 6,1 C 91 % 1018,8 hPa 0,0 l/m 0 min 0 min 0,0 UV-I 0 W/m 7,7 km/h (2 Bft)
30.10.2013 04:30 7,2 C 6,1 C 91 % 1018,8 hPa 0,0 l/m 0 min 0 min 0,0 UV-I 0 W/m 0,0 km/h (0 Bft)
30.10.2013 04:32 7,2 C 6,1 C 91 % 1018,8 hPa 0,0 l/m 0 min 0 min 0,0 UV-I 0 W/m 10,3 km/h (2 Bft)
30.10.2013 04:34 7,2 C 6,1 C 91 % 1018,9 hPa 0,0 l/m 0 min 0 min 0,0 UV-I 0 W/m 0,0 km/h (0 Bft)
30.10.2013 04:36 7,1 C 5,6 C 91 % 1018,8 hPa 0,0 l/m 0 min 0 min 0,0 UV-I 0 W/m 0,0 km/h (0 Bft)
30.10.2013 04:38 7,1 C 5,6 C 91 % 1018,9 hPa 0,0 l/m 0 min 0 min 0,0 UV-I 0 W/m 0,0 km/h (0 Bft)
30.10.2013 04:40 7,1 C 5,6 C 91 % 1018,9 hPa 0,0 l/m 0 min 0 min 0,0 UV-I 0 W/m 12,9 km/h (3 Bft)
30.10.2013 04:42 7,1 C 5,6 C 91 % 1018,9 hPa 0,0 l/m 0 min 0 min 0,0 UV-I 0 W/m 7,7 km/h (2 Bft)
30.10.2013 04:44 7,1 C 5,6 C 91 % 1019,0 hPa 0,0 l/m 0 min 0 min 0,0 UV-I 0 W/m 2,6 km/h (1 Bft)
30.10.2013 04:46 7,0 C 5,6 C 91 % 1019,0 hPa 0,0 l/m 0 min 0 min 0,0 UV-I 0 W/m 5,1 km/h (1 Bft)
30.10.2013 04:48 6,9 C 5,6 C 91 % 1019,0 hPa 0,0 l/m 0 min 0 min 0,0 UV-I 0 W/m 7,7 km/h (2 Bft)
30.10.2013 04:50 6,9 C 5,6 C 91 % 1019,0 hPa 0,0 l/m 0 min 0 min 0,0 UV-I 0 W/m 10,3 km/h (2 Bft)
30.10.2013 04:52 6,9 C 5,6 C 91 % 1019,1 hPa 0,0 l/m 0 min 0 min 0,0 UV-I 0 W/m 2,6 km/h (1 Bft)
30.10.2013 04:54 6,9 C 5,6 C 92 % 1019,0 hPa 0,0 l/m 0 min 0 min 0,0 UV-I 0 W/m 10,3 km/h (2 Bft)
30.10.2013 04:56 6,8 C 5,6 C 92 % 1019,0 hPa 0,0 l/m 0 min 0 min 0,0 UV-I 0 W/m 7,7 km/h (2 Bft)
30.10.2013 04:58 6,8 C 5,6 C 92 % 1019,1 hPa 0,0 l/m 0 min 0 min 0,0 UV-I 0 W/m 7,7 km/h (2 Bft)
30.10.2013 05:00 6,8 C 5,6 C 92 % 1019,1 hPa 0,0 l/m 0 min 0 min 0,0 UV-I 0 W/m 0,0 km/h (0 Bft)
30.10.2013 05:02 6,8 C 5,6 C 92 % 1019,1 hPa 0,0 l/m 0 min 0 min 0,0 UV-I 0 W/m 0,0 km/h (0 Bft)
30.10.2013 05:06 6,7 C 5,6 C 92 % 1019,1 hPa 0,0 l/m 0 min 0 min 0,0 UV-I 0 W/m 5,1 km/h (1 Bft)
30.10.2013 05:08 6,8 C 5,6 C 92 % 1019,1 hPa 0,0 l/m 0 min 0 min 0,0 UV-I 0 W/m 7,7 km/h (2 Bft)
30.10.2013 05:10 6,8 C 5,6 C 92 % 1019,2 hPa 0,0 l/m 0 min 0 min 0,0 UV-I 0 W/m 12,9 km/h (3 Bft)
30.10.2013 05:12 6,8 C 5,6 C 92 % 1019,1 hPa 0,0 l/m 0 min 0 min 0,0 UV-I 0 W/m 10,3 km/h (2 Bft)
30.10.2013 05:14 6,7 C 5,6 C 92 % 1019,1 hPa 0,0 l/m 0 min 0 min 0,0 UV-I 0 W/m 0,0 km/h (0 Bft)
30.10.2013 05:16 6,7 C 5,6 C 92 % 1019,2 hPa 0,0 l/m 0 min 0 min 0,0 UV-I 0 W/m 5,1 km/h (1 Bft)
30.10.2013 05:18 6,7 C 5,6 C 92 % 1019,2 hPa 0,0 l/m 0 min 0 min 0,0 UV-I 0 W/m 0,0 km/h (0 Bft)
30.10.2013 05:20 6,7 C 5,6 C 92 % 1019,3 hPa 0,0 l/m 0 min 0 min 0,0 UV-I 0 W/m 0,0 km/h (0 Bft)
30.10.2013 05:22 6,7 C 5,6 C 92 % 1019,3 hPa 0,0 l/m 0 min 0 min 0,0 UV-I 0 W/m 2,6 km/h (1 Bft)
30.10.2013 05:24 6,7 C 5,6 C 92 % 1019,3 hPa 0,0 l/m 0 min 0 min 0,0 UV-I 0 W/m 2,6 km/h (1 Bft)
30.10.2013 05:26 6,6 C 5,6 C 92 % 1019,3 hPa 0,0 l/m 0 min 0 min 0,0 UV-I 0 W/m 2,6 km/h (1 Bft)
30.10.2013 05:28 6,6 C 5,6 C 92 % 1019,3 hPa 0,0 l/m 0 min 0 min 0,0 UV-I 0 W/m 2,6 km/h (1 Bft)
30.10.2013 05:30 6,7 C 5,6 C 92 % 1019,4 hPa 0,0 l/m 0 min 0 min 0,0 UV-I 0 W/m 5,1 km/h (1 Bft)
30.10.2013 05:32 6,7 C 5,6 C 92 % 1019,4 hPa 0,0 l/m 0 min 0 min 0,0 UV-I 0 W/m 0,0 km/h (0 Bft)
30.10.2013 05:34 6,7 C 5,6 C 92 % 1019,4 hPa 0,0 l/m 0 min 0 min 0,0 UV-I 0 W/m 7,7 km/h (2 Bft)
30.10.2013 05:36 6,8 C 5,6 C 92 % 1019,4 hPa 0,0 l/m 0 min 0 min 0,0 UV-I 0 W/m 0,0 km/h (0 Bft)
30.10.2013 05:38 6,8 C 5,6 C 92 % 1019,4 hPa 0,0 l/m 0 min 0 min 0,0 UV-I 0 W/m 0,0 km/h (0 Bft)
30.10.2013 05:40 6,8 C 5,6 C 92 % 1019,3 hPa 0,0 l/m 0 min 0 min 0,0 UV-I 0 W/m 7,7 km/h (2 Bft)
30.10.2013 05:42 6,8 C 5,6 C 92 % 1019,4 hPa 0,0 l/m 0 min 0 min 0,0 UV-I 0 W/m 7,7 km/h (2 Bft)
30.10.2013 05:44 6,8 C 5,6 C 92 % 1019,5 hPa 0,0 l/m 0 min 0 min 0,0 UV-I 0 W/m 10,3 km/h (2 Bft)
30.10.2013 05:46 6,8 C 5,6 C 92 % 1019,4 hPa 0,0 l/m 0 min 0 min 0,0 UV-I 0 W/m 2,6 km/h (1 Bft)
30.10.2013 05:48 6,8 C 5,6 C 92 % 1019,5 hPa 0,0 l/m 0 min 0 min 0,0 UV-I 0 W/m 5,1 km/h (1 Bft)
30.10.2013 05:50 6,8 C 5,6 C 92 % 1019,5 hPa 0,0 l/m 0 min 0 min 0,0 UV-I 0 W/m 0,0 km/h (0 Bft)
30.10.2013 05:52 6,7 C 5,6 C 92 % 1019,5 hPa 0,0 l/m 0 min 0 min 0,0 UV-I 0 W/m 0,0 km/h (0 Bft)
30.10.2013 05:54 6,7 C 5,6 C 92 % 1019,6 hPa 0,0 l/m 0 min 0 min 0,0 UV-I 0 W/m 2,6 km/h (1 Bft)
30.10.2013 05:56 6,7 C 5,6 C 92 % 1019,6 hPa 0,0 l/m 0 min 0 min 0,0 UV-I 0 W/m 5,1 km/h (1 Bft)
30.10.2013 05:58 6,7 C 5,6 C 91 % 1019,6 hPa 0,0 l/m 0 min 0 min 0,0 UV-I 0 W/m 0,0 km/h (0 Bft)
30.10.2013 06:00 6,7 C 5,6 C 91 % 1019,6 hPa 0,0 l/m 0 min 0 min 0,0 UV-I 0 W/m 2,6 km/h (1 Bft)
30.10.2013 06:02 6,6 C 5,6 C 91 % 1019,7 hPa 0,0 l/m 0 min 0 min 0,0 UV-I 0 W/m 12,9 km/h (3 Bft)
30.10.2013 06:06 6,6 C 5,6 C 91 % 1019,7 hPa 0,0 l/m 0 min 0 min 0,0 UV-I 0 W/m 7,7 km/h (2 Bft)
30.10.2013 06:08 6,6 C 5,6 C 91 % 1019,7 hPa 0,0 l/m 0 min 0 min 0,0 UV-I 0 W/m 0,0 km/h (0 Bft)
30.10.2013 06:10 6,6 C 5,6 C 91 % 1019,7 hPa 0,0 l/m 0 min 0 min 0,0 UV-I 0 W/m 0,0 km/h (0 Bft)
30.10.2013 06:12 6,6 C 5,6 C 92 % 1019,7 hPa 0,0 l/m 0 min 0 min 0,0 UV-I 0 W/m 0,0 km/h (0 Bft)
30.10.2013 06:14 6,5 C 5,6 C 92 % 1019,7 hPa 0,0 l/m 0 min 0 min 0,0 UV-I 0 W/m 0,0 km/h (0 Bft)
30.10.2013 06:16 6,5 C 5,6 C 92 % 1019,7 hPa 0,0 l/m 0 min 0 min 0,0 UV-I 0 W/m 2,6 km/h (1 Bft)
30.10.2013 06:18 6,5 C 5,6 C 92 % 1019,8 hPa 0,0 l/m 0 min 0 min 0,0 UV-I 0 W/m 15,4 km/h (3 Bft)
30.10.2013 06:20 6,6 C 5,6 C 92 % 1019,8 hPa 0,0 l/m 0 min 0 min 0,0 UV-I 0 W/m 0,0 km/h (0 Bft)
30.10.2013 06:22 6,6 C 5,6 C 92 % 1019,7 hPa 0,0 l/m 0 min 0 min 0,0 UV-I 0 W/m 2,6 km/h (1 Bft)
30.10.2013 06:24 6,6 C 5,6 C 92 % 1019,7 hPa 0,0 l/m 0 min 0 min 0,0 UV-I 0 W/m 0,0 km/h (0 Bft)
30.10.2013 06:26 6,6 C 5,6 C 92 % 1019,7 hPa 0,0 l/m 0 min 0 min 0,0 UV-I 0 W/m 7,7 km/h (2 Bft)
30.10.2013 06:28 6,7 C 5,6 C 92 % 1019,8 hPa 0,0 l/m 0 min 0 min 0,0 UV-I 0 W/m 7,7 km/h (2 Bft)
30.10.2013 06:30 6,7 C 5,6 C 92 % 1019,7 hPa 0,0 l/m 0 min 0 min 0,0 UV-I 0 W/m 12,9 km/h (3 Bft)
30.10.2013 06:32 6,6 C 5,6 C 92 % 1019,8 hPa 0,0 l/m 0 min 0 min 0,0 UV-I 0 W/m 0,0 km/h (0 Bft)
30.10.2013 06:34 6,6 C 5,6 C 92 % 1019,9 hPa 0,0 l/m 0 min 0 min 0,0 UV-I 0 W/m 0,0 km/h (0 Bft)
30.10.2013 06:36 6,6 C 5,6 C 92 % 1019,8 hPa 0,0 l/m 0 min 0 min 0,0 UV-I 0 W/m 10,3 km/h (2 Bft)
30.10.2013 06:38 6,6 C 5,6 C 92 % 1019,8 hPa 0,0 l/m 0 min 0 min 0,0 UV-I 0 W/m 7,7 km/h (2 Bft)
30.10.2013 06:40 6,6 C 5,6 C 92 % 1019,8 hPa 0,0 l/m 0 min 0 min 0,0 UV-I 0 W/m 0,0 km/h (0 Bft)
30.10.2013 06:42 6,5 C 5,6 C 92 % 1019,8 hPa 0,0 l/m 0 min 0 min 0,0 UV-I 0 W/m 0,0 km/h (0 Bft)
30.10.2013 06:44 6,4 C 5,6 C 92 % 1019,9 hPa 0,0 l/m 0 min 0 min 0,0 UV-I 0 W/m 10,3 km/h (2 Bft)
30.10.2013 06:46 6,5 C 5,6 C 92 % 1019,9 hPa 0,0 l/m 0 min 0 min 0,0 UV-I 0 W/m 7,7 km/h (2 Bft)
30.10.2013 06:48 6,5 C 5,0 C 92 % 1020,0 hPa 0,0 l/m 0 min 0 min 0,0 UV-I 0 W/m 2,6 km/h (1 Bft)
30.10.2013 06:50 6,4 C 5,0 C 92 % 1020,0 hPa 0,0 l/m 0 min 0 min 0,0 UV-I 0 W/m 0,0 km/h (0 Bft)
30.10.2013 06:52 6,4 C 5,0 C 92 % 1020,0 hPa 0,0 l/m 0 min 0 min 0,0 UV-I 0 W/m 7,7 km/h (2 Bft)
30.10.2013 06:54 6,4 C 5,0 C 92 % 1020,0 hPa 0,0 l/m 0 min 0 min 0,0 UV-I 0 W/m 7,7 km/h (2 Bft)
30.10.2013 06:56 6,4 C 5,6 C 92 % 1020,1 hPa 0,0 l/m 0 min 0 min 0,0 UV-I 0 W/m 2,6 km/h (1 Bft)
30.10.2013 06:58 6,4 C 5,6 C 92 % 1020,2 hPa 0,0 l/m 0 min 0 min 0,0 UV-I 0 W/m 2,6 km/h (1 Bft)
30.10.2013 07:00 6,4 C 5,6 C 92 % 1020,1 hPa 0,0 l/m 0 min 0 min 0,0 UV-I 0 W/m 5,1 km/h (1 Bft)
30.10.2013 07:02 6,4 C 5,6 C 92 % 1020,2 hPa 0,0 l/m 0 min 0 min 0,0 UV-I 0 W/m 0,0 km/h (0 Bft)
30.10.2013 07:06 6,4 C 5,0 C 91 % 1020,3 hPa 0,0 l/m 0 min 0 min 0,0 UV-I 0 W/m 5,1 km/h (1 Bft)
30.10.2013 07:08 6,4 C 5,0 C 91 % 1020,3 hPa 0,0 l/m 0 min 0 min 0,0 UV-I 0 W/m 15,4 km/h (3 Bft)
30.10.2013 07:10 6,4 C 5,0 C 91 % 1020,3 hPa 0,0 l/m 0 min 0 min 0,0 UV-I 0 W/m 2,6 km/h (1 Bft)
30.10.2013 07:12 6,4 C 5,0 C 91 % 1020,3 hPa 0,0 l/m 0 min 0 min 0,0 UV-I 0 W/m 2,6 km/h (1 Bft)
30.10.2013 07:14 6,4 C 5,0 C 91 % 1020,4 hPa 0,0 l/m 0 min 0 min 0,0 UV-I 0 W/m 7,7 km/h (2 Bft)
30.10.2013 07:16 6,4 C 5,0 C 91 % 1020,4 hPa 0,0 l/m 0 min 0 min 0,0 UV-I 0 W/m 7,7 km/h (2 Bft)
30.10.2013 07:18 6,4 C 5,0 C 91 % 1020,5 hPa 0,0 l/m 0 min 0 min 0,0 UV-I 0 W/m 7,7 km/h (2 Bft)
30.10.2013 07:20 6,4 C 5,0 C 91 % 1020,5 hPa 0,0 l/m 0 min 0 min 0,0 UV-I 0 W/m 5,1 km/h (1 Bft)
30.10.2013 07:22 6,3 C 5,0 C 91 % 1020,5 hPa 0,0 l/m 0 min 0 min 0,0 UV-I 5 W/m 0,0 km/h (0 Bft)
30.10.2013 07:24 6,3 C 5,0 C 91 % 1020,6 hPa 0,0 l/m 0 min 0 min 0,0 UV-I 5 W/m 15,4 km/h (3 Bft)
30.10.2013 07:26 6,3 C 5,0 C 91 % 1020,6 hPa 0,0 l/m 0 min 0 min 0,0 UV-I 5 W/m 5,1 km/h (1 Bft)
30.10.2013 07:28 6,3 C 5,0 C 91 % 1020,6 hPa 0,0 l/m 0 min 0 min 0,0 UV-I 5 W/m 2,6 km/h (1 Bft)
30.10.2013 07:30 6,3 C 5,0 C 91 % 1020,7 hPa 0,0 l/m 0 min 0 min 0,0 UV-I 7 W/m 7,7 km/h (2 Bft)
30.10.2013 07:32 6,3 C 5,0 C 91 % 1020,7 hPa 0,0 l/m 0 min 0 min 0,0 UV-I 7 W/m 10,3 km/h (2 Bft)
30.10.2013 07:34 6,3 C 5,0 C 91 % 1020,7 hPa 0,0 l/m 0 min 0 min 0,0 UV-I 9 W/m 10,3 km/h (2 Bft)
30.10.2013 07:36 6,3 C 5,0 C 91 % 1020,8 hPa 0,0 l/m 0 min 0 min 0,0 UV-I 9 W/m 0,0 km/h (0 Bft)
30.10.2013 07:38 6,3 C 5,0 C 91 % 1020,8 hPa 0,0 l/m 0 min 0 min 0,0 UV-I 11 W/m 12,9 km/h (3 Bft)
30.10.2013 07:40 6,3 C 5,0 C 91 % 1020,8 hPa 0,0 l/m 0 min 0 min 0,0 UV-I 11 W/m 2,6 km/h (1 Bft)
30.10.2013 07:42 6,3 C 5,0 C 91 % 1020,8 hPa 0,0 l/m 0 min 0 min 0,0 UV-I 12 W/m 5,1 km/h (1 Bft)
30.10.2013 07:44 6,3 C 5,0 C 91 % 1020,8 hPa 0,0 l/m 0 min 0 min 0,0 UV-I 12 W/m 7,7 km/h (2 Bft)
30.10.2013 07:46 6,3 C 5,0 C 91 % 1020,9 hPa 0,0 l/m 0 min 0 min 0,0 UV-I 14 W/m 7,7 km/h (2 Bft)
30.10.2013 07:48 6,3 C 5,0 C 91 % 1020,9 hPa 0,0 l/m 0 min 0 min 0,0 UV-I 14 W/m 0,0 km/h (0 Bft)
30.10.2013 07:50 6,2 C 5,0 C 91 % 1020,9 hPa 0,0 l/m 0 min 0 min 0,0 UV-I 16 W/m 0,0 km/h (0 Bft)
30.10.2013 07:52 6,2 C 5,0 C 91 % 1020,9 hPa 0,0 l/m 0 min 0 min 0,0 UV-I 16 W/m 2,6 km/h (1 Bft)
30.10.2013 07:54 6,2 C 5,0 C 91 % 1020,9 hPa 0,0 l/m 0 min 0 min 0,0 UV-I 18 W/m 7,7 km/h (2 Bft)
30.10.2013 07:56 6,3 C 5,0 C 91 % 1021,0 hPa 0,0 l/m 0 min 0 min 0,0 UV-I 18 W/m 7,7 km/h (2 Bft)
30.10.2013 07:58 6,3 C 5,0 C 91 % 1021,1 hPa 0,0 l/m 0 min 0 min 0,0 UV-I 19 W/m 10,3 km/h (2 Bft)
30.10.2013 08:00 6,3 C 5,0 C 91 % 1021,1 hPa 0,0 l/m 0 min 0 min 0,0 UV-I 19 W/m 7,7 km/h (2 Bft)
30.10.2013 08:02 6,3 C 5,0 C 91 % 1021,1 hPa 0,0 l/m 0 min 0 min 0,0 UV-I 21 W/m 0,0 km/h (0 Bft)
30.10.2013 08:06 6,3 C 5,0 C 91 % 1021,1 hPa 0,0 l/m 0 min 0 min 0,0 UV-I 23 W/m 10,3 km/h (2 Bft)
30.10.2013 08:08 6,3 C 5,0 C 91 % 1021,2 hPa 0,0 l/m 0 min 0 min 0,0 UV-I 23 W/m 0,0 km/h (0 Bft)
30.10.2013 08:10 6,3 C 5,0 C 91 % 1021,3 hPa 0,0 l/m 0 min 0 min 0,0 UV-I 23 W/m 7,7 km/h (2 Bft)
30.10.2013 08:12 6,3 C 5,0 C 91 % 1021,2 hPa 0,0 l/m 0 min 0 min 0,0 UV-I 25 W/m 2,6 km/h (1 Bft)
30.10.2013 08:14 6,4 C 5,6 C 91 % 1021,2 hPa 0,0 l/m 0 min 0 min 0,0 UV-I 25 W/m 2,6 km/h (1 Bft)
30.10.2013 08:16 6,4 C 5,6 C 91 % 1021,3 hPa 0,0 l/m 0 min 0 min 0,0 UV-I 25 W/m 2,6 km/h (1 Bft)
30.10.2013 08:18 6,4 C 5,6 C 91 % 1021,3 hPa 0,0 l/m 0 min 0 min 0,0 UV-I 25 W/m 0,0 km/h (0 Bft)
30.10.2013 08:20 6,4 C 5,6 C 91 % 1021,3 hPa 0,0 l/m 0 min 0 min 0,0 UV-I 26 W/m 5,1 km/h (1 Bft)
30.10.2013 08:22 6,4 C 5,6 C 91 % 1021,4 hPa 0,0 l/m 0 min 0 min 0,0 UV-I 26 W/m 10,3 km/h (2 Bft)
30.10.2013 08:24 6,4 C 5,6 C 91 % 1021,4 hPa 0,0 l/m 0 min 0 min 0,0 UV-I 26 W/m 5,1 km/h (1 Bft)
30.10.2013 08:26 6,4 C 5,6 C 91 % 1021,5 hPa 0,0 l/m 0 min 0 min 0,0 UV-I 28 W/m 5,1 km/h (1 Bft)
30.10.2013 08:28 6,5 C 5,6 C 91 % 1021,5 hPa 0,0 l/m 0 min 0 min 0,0 UV-I 28 W/m 7,7 km/h (2 Bft)
30.10.2013 08:30 6,6 C 5,6 C 91 % 1021,5 hPa 0,0 l/m 0 min 0 min 0,0 UV-I 30 W/m 0,0 km/h (0 Bft)
30.10.2013 08:32 6,6 C 5,6 C 91 % 1021,6 hPa 0,0 l/m 0 min 0 min 0,0 UV-I 30 W/m 2,6 km/h (1 Bft)
30.10.2013 08:34 6,6 C 5,6 C 91 % 1021,8 hPa 0,0 l/m 0 min 0 min 0,0 UV-I 32 W/m 2,6 km/h (1 Bft)
30.10.2013 08:36 6,7 C 5,6 C 91 % 1021,6 hPa 0,0 l/m 0 min 0 min 0,0 UV-I 39 W/m 2,6 km/h (1 Bft)
30.10.2013 08:38 6,7 C 5,6 C 91 % 1021,6 hPa 0,0 l/m 0 min 0 min 0,0 UV-I 32 W/m 7,7 km/h (2 Bft)
30.10.2013 08:40 6,8 C 5,6 C 91 % 1021,7 hPa 0,0 l/m 0 min 0 min 0,0 UV-I 32 W/m 2,6 km/h (1 Bft)
30.10.2013 08:42 6,8 C 5,6 C 91 % 1021,8 hPa 0,0 l/m 0 min 0 min 0,0 UV-I 33 W/m 12,9 km/h (3 Bft)
30.10.2013 08:44 6,9 C 5,6 C 91 % 1021,9 hPa 0,0 l/m 0 min 0 min 0,0 UV-I 35 W/m 2,6 km/h (1 Bft)
30.10.2013 08:46 6,9 C 6,1 C 91 % 1021,9 hPa 0,0 l/m 0 min 0 min 0,0 UV-I 81 W/m 10,3 km/h (2 Bft)
30.10.2013 08:48 6,9 C 6,1 C 91 % 1021,9 hPa 0,0 l/m 0 min 0 min 0,0 UV-I 102 W/m 12,9 km/h (3 Bft)
30.10.2013 08:50 7,0 C 6,1 C 90 % 1021,9 hPa 0,0 l/m 2 min 0 min 0,0 UV-I 105 W/m 0,0 km/h (0 Bft)
30.10.2013 08:52 7,0 C 6,1 C 90 % 1022,0 hPa 0,0 l/m 2 min 0 min 0,0 UV-I 111 W/m 0,0 km/h (0 Bft)
30.10.2013 08:54 7,1 C 6,1 C 90 % 1022,0 hPa 0,0 l/m 2 min 0 min 0,0 UV-I 114 W/m 0,0 km/h (0 Bft)
30.10.2013 08:56 7,1 C 6,1 C 90 % 1022,0 hPa 0,0 l/m 2 min 0 min 0,0 UV-I 118 W/m 7,7 km/h (2 Bft)
30.10.2013 08:58 7,2 C 6,1 C 90 % 1022,0 hPa 0,0 l/m 2 min 0 min 0,0 UV-I 121 W/m 2,6 km/h (1 Bft)
30.10.2013 09:00 7,2 C 6,1 C 90 % 1022,0 hPa 0,0 l/m 2 min 0 min 0,0 UV-I 125 W/m 0,0 km/h (0 Bft)
30.10.2013 09:02 7,2 C 6,1 C 90 % 1022,1 hPa 0,0 l/m 2 min 0 min 0,0 UV-I 130 W/m 12,9 km/h (3 Bft)
30.10.2013 09:06 7,3 C 6,1 C 90 % 1022,1 hPa 0,0 l/m 2 min 0 min 0,0 UV-I 142 W/m 15,4 km/h (3 Bft)
30.10.2013 09:08 7,4 C 6,1 C 90 % 1022,1 hPa 0,0 l/m 2 min 0 min 0,0 UV-I 148 W/m 5,1 km/h (1 Bft)
30.10.2013 09:10 7,5 C 6,7 C 89 % 1022,2 hPa 0,0 l/m 2 min 0 min 0,0 UV-I 151 W/m 12,9 km/h (3 Bft)
30.10.2013 09:12 7,6 C 6,7 C 89 % 1022,2 hPa 0,0 l/m 2 min 0 min 0,0 UV-I 155 W/m 7,7 km/h (2 Bft)
30.10.2013 09:14 7,6 C 6,7 C 89 % 1022,2 hPa 0,0 l/m 2 min 0 min 0,0 UV-I 160 W/m 2,6 km/h (1 Bft)
30.10.2013 09:16 7,7 C 6,7 C 89 % 1022,2 hPa 0,0 l/m 2 min 0 min 0,0 UV-I 162 W/m 7,7 km/h (2 Bft)
30.10.2013 09:18 7,8 C 6,7 C 89 % 1022,3 hPa 0,0 l/m 2 min 0 min 0,0 UV-I 163 W/m 10,3 km/h (2 Bft)
30.10.2013 09:20 7,8 C 6,7 C 88 % 1022,3 hPa 0,0 l/m 2 min 0 min 0,0 UV-I 172 W/m 2,6 km/h (1 Bft)
30.10.2013 09:22 7,9 C 6,7 C 88 % 1022,4 hPa 0,0 l/m 2 min 0 min 0,0 UV-I 178 W/m 12,9 km/h (3 Bft)
30.10.2013 09:24 7,9 C 6,7 C 88 % 1022,2 hPa 0,0 l/m 2 min 0 min 0,0 UV-I 181 W/m 15,4 km/h (3 Bft)
30.10.2013 09:26 8,0 C 6,7 C 88 % 1022,4 hPa 0,0 l/m 2 min 0 min 0,0 UV-I 186 W/m 15,4 km/h (3 Bft)
30.10.2013 09:28 8,1 C 6,7 C 88 % 1022,4 hPa 0,0 l/m 2 min 0 min 0,0 UV-I 190 W/m 15,4 km/h (3 Bft)
30.10.2013 09:30 8,1 C 7,2 C 88 % 1022,4 hPa 0,0 l/m 2 min 0 min 0,0 UV-I 193 W/m 5,1 km/h (1 Bft)
30.10.2013 09:32 8,2 C 7,2 C 87 % 1022,5 hPa 0,0 l/m 2 min 0 min 0,0 UV-I 199 W/m 7,7 km/h (2 Bft)
30.10.2013 09:34 8,2 C 7,2 C 87 % 1022,5 hPa 0,0 l/m 2 min 0 min 0,0 UV-I 202 W/m 7,7 km/h (2 Bft)
30.10.2013 09:36 8,3 C 7,2 C 87 % 1022,4 hPa 0,0 l/m 2 min 0 min 0,0 UV-I 206 W/m 12,9 km/h (3 Bft)
30.10.2013 09:38 8,3 C 7,2 C 87 % 1022,5 hPa 0,0 l/m 2 min 0 min 0,0 UV-I 211 W/m 10,3 km/h (2 Bft)
30.10.2013 09:40 8,3 C 7,2 C 87 % 1022,5 hPa 0,0 l/m 2 min 0 min 0,0 UV-I 214 W/m 7,7 km/h (2 Bft)
30.10.2013 09:42 8,4 C 7,2 C 87 % 1022,5 hPa 0,0 l/m 2 min 0 min 0,0 UV-I 216 W/m 12,9 km/h (3 Bft)
30.10.2013 09:44 8,4 C 7,2 C 87 % 1022,5 hPa 0,0 l/m 2 min 0 min 0,0 UV-I 221 W/m 10,3 km/h (2 Bft)
30.10.2013 09:46 8,5 C 7,2 C 87 % 1022,6 hPa 0,0 l/m 2 min 0 min 0,0 UV-I 223 W/m 12,9 km/h (3 Bft)
30.10.2013 09:48 8,6 C 7,2 C 87 % 1022,6 hPa 0,0 l/m 2 min 0 min 0,0 UV-I 227 W/m 0,0 km/h (0 Bft)
30.10.2013 09:50 8,7 C 7,2 C 87 % 1022,6 hPa 0,0 l/m 2 min 0 min 0,0 UV-I 230 W/m 0,0 km/h (0 Bft)
30.10.2013 09:52 8,8 C 7,2 C 87 % 1022,6 hPa 0,0 l/m 2 min 0 min 0,0 UV-I 236 W/m 2,6 km/h (1 Bft)
30.10.2013 09:54 8,8 C 7,8 C 86 % 1022,6 hPa 0,0 l/m 2 min 0 min 0,0 UV-I 239 W/m 10,3 km/h (2 Bft)
30.10.2013 09:56 8,9 C 7,8 C 86 % 1022,7 hPa 0,0 l/m 2 min 0 min 0,0 UV-I 243 W/m 0,0 km/h (0 Bft)
30.10.2013 09:58 8,9 C 7,8 C 86 % 1022,7 hPa 0,0 l/m 2 min 0 min 0,0 UV-I 246 W/m 10,3 km/h (2 Bft)
30.10.2013 10:00 9,0 C 7,8 C 86 % 1022,7 hPa 0,0 l/m 2 min 0 min 0,0 UV-I 250 W/m 7,7 km/h (2 Bft)
30.10.2013 10:02 9,1 C 7,8 C 86 % 1022,6 hPa 0,0 l/m 2 min 0 min 0,0 UV-I 253 W/m 12,9 km/h (3 Bft)
30.10.2013 10:04 9,2 C 7,8 C 86 % 1022,7 hPa 0,0 l/m 2 min 0 min 0,0 UV-I 257 W/m 20,6 km/h (4 Bft)
30.10.2013 10:06 9,3 C 7,8 C 85 % 1022,7 hPa 0,0 l/m 2 min 0 min 0,0 UV-I 260 W/m 10,3 km/h (2 Bft)
30.10.2013 10:08 9,3 C 7,8 C 85 % 1022,7 hPa 0,0 l/m 2 min 0 min 0,0 UV-I 264 W/m 7,7 km/h (2 Bft)
30.10.2013 10:10 9,4 C 7,8 C 85 % 1022,7 hPa 0,0 l/m 2 min 0 min 0,0 UV-I 265 W/m 10,3 km/h (2 Bft)
30.10.2013 10:12 9,4 C 7,8 C 84 % 1022,7 hPa 0,0 l/m 2 min 0 min 0,0 UV-I 269 W/m 7,7 km/h (2 Bft)
30.10.2013 10:14 9,5 C 7,8 C 84 % 1022,8 hPa 0,0 l/m 2 min 0 min 0,0 UV-I 274 W/m 12,9 km/h (3 Bft)
30.10.2013 10:16 9,4 C 7,8 C 84 % 1022,7 hPa 0,0 l/m 2 min 0 min 0,0 UV-I 274 W/m 5,1 km/h (1 Bft)
30.10.2013 10:18 9,6 C 7,8 C 85 % 1022,7 hPa 0,0 l/m 2 min 0 min 0,0 UV-I 278 W/m 2,6 km/h (1 Bft)
30.10.2013 10:20 9,6 C 7,8 C 84 % 1022,8 hPa 0,0 l/m 2 min 0 min 0,0 UV-I 283 W/m 2,6 km/h (1 Bft)
30.10.2013 10:22 9,6 C 8,3 C 84 % 1022,8 hPa 0,0 l/m 2 min 0 min 0,0 UV-I 285 W/m 5,1 km/h (1 Bft)
30.10.2013 10:24 9,6 C 8,3 C 84 % 1022,8 hPa 0,0 l/m 2 min 0 min 0,0 UV-I 287 W/m 2,6 km/h (1 Bft)
30.10.2013 10:26 9,7 C 8,3 C 84 % 1022,8 hPa 0,0 l/m 2 min 0 min 0,0 UV-I 292 W/m 7,7 km/h (2 Bft)
30.10.2013 10:28 9,7 C 8,3 C 84 % 1022,8 hPa 0,0 l/m 2 min 0 min 0,0 UV-I 294 W/m 2,6 km/h (1 Bft)
30.10.2013 10:30 9,8 C 8,3 C 84 % 1022,8 hPa 0,0 l/m 2 min 0 min 0,0 UV-I 297 W/m 7,7 km/h (2 Bft)
30.10.2013 10:32 9,8 C 8,3 C 84 % 1022,9 hPa 0,0 l/m 2 min 0 min 0,0 UV-I 301 W/m 10,3 km/h (2 Bft)
30.10.2013 10:34 9,8 C 8,3 C 83 % 1022,9 hPa 0,0 l/m 2 min 0 min 0,0 UV-I 304 W/m 10,3 km/h (2 Bft)
30.10.2013 10:36 9,8 C 8,3 C 83 % 1022,9 hPa 0,0 l/m 2 min 0 min 0,0 UV-I 304 W/m 20,6 km/h (4 Bft)
30.10.2013 10:38 9,9 C 8,3 C 83 % 1023,0 hPa 0,0 l/m 2 min 0 min 0,0 UV-I 309 W/m 10,3 km/h (2 Bft)
30.10.2013 10:40 9,9 C 8,9 C 83 % 1022,9 hPa 0,0 l/m 2 min 0 min 0,0 UV-I 311 W/m 5,1 km/h (1 Bft)
30.10.2013 10:42 10,1 C 8,9 C 83 % 1022,9 hPa 0,0 l/m 2 min 0 min 0,0 UV-I 315 W/m 10,3 km/h (2 Bft)
30.10.2013 10:44 10,1 C 8,9 C 83 % 1023,0 hPa 0,0 l/m 2 min 0 min 0,0 UV-I 315 W/m 2,6 km/h (1 Bft)
30.10.2013 10:46 10,3 C 8,9 C 83 % 1023,0 hPa 0,0 l/m 2 min 0 min 0,0 UV-I 318 W/m 12,9 km/h (3 Bft)
30.10.2013 10:48 10,3 C 8,9 C 83 % 1023,0 hPa 0,0 l/m 2 min 0 min 0,0 UV-I 322 W/m 2,6 km/h (1 Bft)
30.10.2013 10:50 10,3 C 8,9 C 82 % 1023,0 hPa 0,0 l/m 2 min 0 min 0,0 UV-I 320 W/m 10,3 km/h (2 Bft)
30.10.2013 10:52 10,4 C 8,9 C 82 % 1023,0 hPa 0,0 l/m 2 min 0 min 0,0 UV-I 323 W/m 7,7 km/h (2 Bft)
30.10.2013 10:54 10,4 C 8,9 C 82 % 1023,0 hPa 0,0 l/m 2 min 0 min 0,5 UV-I 325 W/m 7,7 km/h (2 Bft)
30.10.2013 10:56 10,4 C 8,9 C 82 % 1023,0 hPa 0,0 l/m 2 min 0 min 0,5 UV-I 327 W/m 18,0 km/h (3 Bft)
30.10.2013 10:58 10,4 C 8,9 C 81 % 1023,0 hPa 0,0 l/m 2 min 0 min 0,5 UV-I 330 W/m 2,6 km/h (1 Bft)
30.10.2013 11:00 10,4 C 8,9 C 82 % 1023,1 hPa 0,0 l/m 2 min 0 min 0,5 UV-I 334 W/m 0,0 km/h (0 Bft)
30.10.2013 11:02 10,5 C 9,4 C 82 % 1023,1 hPa 0,0 l/m 2 min 0 min 0,5 UV-I 336 W/m 10,3 km/h (2 Bft)
30.10.2013 11:04 10,6 C 9,4 C 82 % 1023,1 hPa 0,0 l/m 2 min 0 min 0,5 UV-I 338 W/m 12,9 km/h (3 Bft)
30.10.2013 11:06 10,7 C 9,4 C 81 % 1023,1 hPa 0,0 l/m 2 min 0 min 0,5 UV-I 339 W/m 12,9 km/h (3 Bft)
30.10.2013 11:08 10,7 C 9,4 C 81 % 1023,1 hPa 0,0 l/m 2 min 0 min 0,5 UV-I 338 W/m 10,3 km/h (2 Bft)
30.10.2013 11:10 10,7 C 9,4 C 81 % 1023,1 hPa 0,0 l/m 2 min 0 min 0,5 UV-I 336 W/m 5,1 km/h (1 Bft)
30.10.2013 11:12 10,7 C 9,4 C 81 % 1023,2 hPa 0,0 l/m 2 min 0 min 0,5 UV-I 346 W/m 15,4 km/h (3 Bft)
30.10.2013 11:14 10,7 C 9,4 C 81 % 1023,1 hPa 0,0 l/m 2 min 0 min 0,5 UV-I 346 W/m 10,3 km/h (2 Bft)
30.10.2013 11:16 10,8 C 9,4 C 81 % 1023,2 hPa 0,0 l/m 2 min 0 min 0,5 UV-I 348 W/m 18,0 km/h (3 Bft)
30.10.2013 11:18 10,8 C 9,4 C 81 % 1023,2 hPa 0,0 l/m 2 min 0 min 0,5 UV-I 346 W/m 2,6 km/h (1 Bft)
30.10.2013 11:20 11,0 C 9,4 C 81 % 1023,2 hPa 0,0 l/m 2 min 0 min 0,5 UV-I 348 W/m 0,0 km/h (0 Bft)
30.10.2013 11:22 11,1 C 9,4 C 81 % 1023,1 hPa 0,0 l/m 2 min 0 min 0,0 UV-I 355 W/m 7,7 km/h (2 Bft)
30.10.2013 11:24 11,2 C 10,0 C 81 % 1023,1 hPa 0,0 l/m 2 min 0 min 0,0 UV-I 276 W/m 12,9 km/h (3 Bft)
30.10.2013 11:26 11,2 C 10,0 C 80 % 1023,2 hPa 0,0 l/m 2 min 0 min 0,0 UV-I 357 W/m 0,0 km/h (0 Bft)
30.10.2013 11:28 11,2 C 10,0 C 80 % 1023,2 hPa 0,0 l/m 2 min 0 min 0,0 UV-I 359 W/m 20,6 km/h (4 Bft)
30.10.2013 11:30 11,3 C 10,0 C 80 % 1023,2 hPa 0,0 l/m 2 min 0 min 0,0 UV-I 357 W/m 10,3 km/h (2 Bft)
30.10.2013 11:32 11,3 C 10,0 C 80 % 1023,2 hPa 0,0 l/m 2 min 0 min 0,0 UV-I 360 W/m 10,3 km/h (2 Bft)
30.10.2013 11:34 11,4 C 10,0 C 80 % 1023,2 hPa 0,0 l/m 2 min 0 min 0,0 UV-I 364 W/m 7,7 km/h (2 Bft)
30.10.2013 11:36 11,4 C 10,0 C 79 % 1023,2 hPa 0,0 l/m 2 min 0 min 0,0 UV-I 369 W/m 18,0 km/h (3 Bft)
30.10.2013 11:38 11,4 C 10,0 C 79 % 1023,2 hPa 0,0 l/m 2 min 0 min 0,0 UV-I 362 W/m 12,9 km/h (3 Bft)
30.10.2013 11:40 11,5 C 10,0 C 79 % 1023,3 hPa 0,0 l/m 2 min 0 min 0,0 UV-I 367 W/m 18,0 km/h (3 Bft)
30.10.2013 11:42 11,4 C 10,0 C 79 % 1023,2 hPa 0,0 l/m 2 min 0 min 0,0 UV-I 366 W/m 12,9 km/h (3 Bft)
30.10.2013 11:44 11,3 C 10,0 C 79 % 1023,2 hPa 0,0 l/m 2 min 0 min 0,0 UV-I 367 W/m 15,4 km/h (3 Bft)
30.10.2013 11:46 11,3 C 10,0 C 78 % 1023,2 hPa 0,0 l/m 2 min 0 min 0,0 UV-I 374 W/m 12,9 km/h (3 Bft)
30.10.2013 11:48 11,3 C 10,0 C 79 % 1023,2 hPa 0,0 l/m 2 min 0 min 0,0 UV-I 374 W/m 10,3 km/h (2 Bft)
30.10.2013 11:50 11,4 C 10,6 C 80 % 1023,2 hPa 0,0 l/m 2 min 0 min 0,0 UV-I 385 W/m 18,0 km/h (3 Bft)
30.10.2013 11:52 11,6 C 10,6 C 79 % 1023,3 hPa 0,0 l/m 2 min 0 min 0,0 UV-I 392 W/m 20,6 km/h (4 Bft)
30.10.2013 11:54 11,6 C 10,6 C 79 % 1023,2 hPa 0,0 l/m 2 min 0 min 0,0 UV-I 383 W/m 7,7 km/h (2 Bft)
30.10.2013 11:56 11,7 C 10,6 C 79 % 1023,2 hPa 0,0 l/m 2 min 0 min 0,0 UV-I 380 W/m 10,3 km/h (2 Bft)
30.10.2013 11:58 11,8 C 10,6 C 79 % 1023,2 hPa 0,0 l/m 2 min 0 min 0,0 UV-I 378 W/m 7,7 km/h (2 Bft)
30.10.2013 12:00 11,8 C 10,6 C 78 % 1023,2 hPa 0,0 l/m 2 min 0 min 0,0 UV-I 376 W/m 15,4 km/h (3 Bft)
30.10.2013 12:02 11,8 C 10,6 C 78 % 1023,2 hPa 0,0 l/m 2 min 0 min 0,0 UV-I 371 W/m 7,7 km/h (2 Bft)
30.10.2013 12:06 11,8 C 10,6 C 77 % 1023,2 hPa 0,0 l/m 2 min 0 min 0,0 UV-I 387 W/m 10,3 km/h (2 Bft)
30.10.2013 12:08 11,7 C 10,6 C 77 % 1023,2 hPa 0,0 l/m 0 min 0 min 0,0 UV-I 56 W/m 7,7 km/h (2 Bft)
30.10.2013 12:10 11,6 C 10,6 C 77 % 1023,1 hPa 0,0 l/m 2 min 0 min 0,0 UV-I 369 W/m 10,3 km/h (2 Bft)
30.10.2013 12:12 11,6 C 10,6 C 79 % 1023,2 hPa 0,0 l/m 2 min 0 min 0,5 UV-I 380 W/m 12,9 km/h (3 Bft)
30.10.2013 12:14 11,8 C 10,6 C 78 % 1023,3 hPa 0,0 l/m 2 min 0 min 0,5 UV-I 397 W/m 0,0 km/h (0 Bft)
30.10.2013 12:16 11,9 C 10,6 C 78 % 1023,2 hPa 0,0 l/m 2 min 0 min 0,6 UV-I 390 W/m 10,3 km/h (2 Bft)
30.10.2013 12:18 11,9 C 10,6 C 77 % 1023,3 hPa 0,0 l/m 2 min 0 min 0,6 UV-I 378 W/m 7,7 km/h (2 Bft)
30.10.2013 12:20 11,9 C 10,6 C 76 % 1023,3 hPa 0,0 l/m 2 min 0 min 0,7 UV-I 376 W/m 12,9 km/h (3 Bft)
30.10.2013 12:22 11,9 C 10,6 C 77 % 1023,3 hPa 0,0 l/m 2 min 0 min 0,7 UV-I 369 W/m 10,3 km/h (2 Bft)
30.10.2013 12:24 12,1 C 10,6 C 77 % 1023,3 hPa 0,0 l/m 2 min 0 min 0,0 UV-I 374 W/m 15,4 km/h (3 Bft)
30.10.2013 12:26 11,9 C 10,6 C 77 % 1023,3 hPa 0,0 l/m 0 min 0 min 0,7 UV-I 102 W/m 10,3 km/h (2 Bft)
30.10.2013 12:28 11,9 C 10,6 C 77 % 1023,2 hPa 0,0 l/m 2 min 0 min 0,7 UV-I 381 W/m 7,7 km/h (2 Bft)
30.10.2013 12:30 12,1 C 11,1 C 77 % 1023,2 hPa 0,0 l/m 2 min 0 min 0,7 UV-I 390 W/m 12,9 km/h (3 Bft)
30.10.2013 12:32 12,2 C 11,1 C 77 % 1023,2 hPa 0,0 l/m 2 min 0 min 0,7 UV-I 392 W/m 5,1 km/h (1 Bft)
30.10.2013 12:34 12,2 C 11,1 C 76 % 1023,1 hPa 0,0 l/m 2 min 0 min 0,7 UV-I 387 W/m 12,9 km/h (3 Bft)
30.10.2013 12:36 12,3 C 11,1 C 76 % 1023,2 hPa 0,0 l/m 2 min 0 min 0,7 UV-I 388 W/m 12,9 km/h (3 Bft)
30.10.2013 12:38 12,3 C 11,1 C 75 % 1023,3 hPa 0,0 l/m 2 min 0 min 0,7 UV-I 397 W/m 7,7 km/h (2 Bft)
30.10.2013 12:40 12,3 C 11,1 C 75 % 1023,2 hPa 0,0 l/m 2 min 0 min 0,8 UV-I 418 W/m 10,3 km/h (2 Bft)
30.10.2013 12:42 12,4 C 11,1 C 75 % 1023,2 hPa 0,0 l/m 2 min 0 min 0,8 UV-I 434 W/m 5,1 km/h (1 Bft)
30.10.2013 12:44 12,4 C 11,1 C 75 % 1023,2 hPa 0,0 l/m 2 min 0 min 0,7 UV-I 429 W/m 12,9 km/h (3 Bft)
30.10.2013 12:46 12,4 C 11,7 C 74 % 1023,3 hPa 0,0 l/m 2 min 0 min 0,8 UV-I 462 W/m 15,4 km/h (3 Bft)
30.10.2013 12:48 12,4 C 11,7 C 74 % 1023,3 hPa 0,0 l/m 2 min 0 min 0,8 UV-I 464 W/m 7,7 km/h (2 Bft)
30.10.2013 12:50 12,6 C 11,7 C 74 % 1023,3 hPa 0,0 l/m 2 min 0 min 0,7 UV-I 431 W/m 10,3 km/h (2 Bft)
30.10.2013 12:52 12,6 C 11,7 C 74 % 1023,3 hPa 0,0 l/m 2 min 0 min 0,7 UV-I 422 W/m 7,7 km/h (2 Bft)
30.10.2013 12:54 12,7 C 11,7 C 74 % 1023,3 hPa 0,0 l/m 2 min 0 min 0,7 UV-I 404 W/m 10,3 km/h (2 Bft)
30.10.2013 12:56 12,7 C 11,7 C 74 % 1023,4 hPa 0,0 l/m 2 min 0 min 0,7 UV-I 390 W/m 10,3 km/h (2 Bft)
30.10.2013 12:58 12,6 C 11,7 C 73 % 1023,3 hPa 0,0 l/m 2 min 0 min 0,7 UV-I 383 W/m 12,9 km/h (3 Bft)
30.10.2013 13:00 12,6 C 11,7 C 73 % 1023,3 hPa 0,0 l/m 2 min 0 min 0,7 UV-I 383 W/m 0,0 km/h (0 Bft)
30.10.2013 13:02 12,6 C 11,1 C 73 % 1023,3 hPa 0,0 l/m 2 min 0 min 0,6 UV-I 366 W/m 10,3 km/h (2 Bft)
30.10.2013 13:04 12,6 C 11,1 C 73 % 1023,4 hPa 0,0 l/m 2 min 0 min 0,7 UV-I 371 W/m 12,9 km/h (3 Bft)
30.10.2013 13:06 12,5 C 11,1 C 72 % 1023,4 hPa 0,0 l/m 2 min 0 min 0,7 UV-I 378 W/m 7,7 km/h (2 Bft)
30.10.2013 13:08 12,4 C 11,1 C 73 % 1023,3 hPa 0,0 l/m 2 min 0 min 0,7 UV-I 378 W/m 20,6 km/h (4 Bft)
30.10.2013 13:10 12,4 C 11,1 C 73 % 1023,3 hPa 0,0 l/m 2 min 0 min 0,7 UV-I 378 W/m 7,7 km/h (2 Bft)
30.10.2013 13:12 12,4 C 11,1 C 73 % 1023,3 hPa 0,0 l/m 2 min 0 min 0,7 UV-I 376 W/m 7,7 km/h (2 Bft)
30.10.2013 13:14 12,5 C 11,1 C 72 % 1023,3 hPa 0,0 l/m 2 min 0 min 0,6 UV-I 369 W/m 10,3 km/h (2 Bft)
30.10.2013 13:16 12,5 C 11,1 C 72 % 1023,3 hPa 0,0 l/m 2 min 0 min 0,6 UV-I 366 W/m 10,3 km/h (2 Bft)
30.10.2013 13:18 12,5 C 11,1 C 73 % 1023,3 hPa 0,0 l/m 2 min 0 min 0,6 UV-I 373 W/m 12,9 km/h (3 Bft)
30.10.2013 13:20 12,6 C 11,7 C 73 % 1023,4 hPa 0,0 l/m 2 min 0 min 0,6 UV-I 387 W/m 12,9 km/h (3 Bft)
30.10.2013 13:22 12,6 C 11,1 C 73 % 1023,3 hPa 0,0 l/m 2 min 0 min 0,6 UV-I 380 W/m 12,9 km/h (3 Bft)
30.10.2013 13:24 12,6 C 11,1 C 73 % 1023,2 hPa 0,0 l/m 2 min 0 min 0,6 UV-I 383 W/m 10,3 km/h (2 Bft)
30.10.2013 13:26 12,7 C 11,7 C 72 % 1023,2 hPa 0,0 l/m 2 min 0 min 0,6 UV-I 381 W/m 7,7 km/h (2 Bft)
30.10.2013 13:28 12,7 C 11,7 C 73 % 1023,2 hPa 0,0 l/m 2 min 0 min 0,6 UV-I 371 W/m 7,7 km/h (2 Bft)
30.10.2013 13:30 12,7 C 11,7 C 72 % 1023,2 hPa 0,0 l/m 2 min 0 min 0,6 UV-I 371 W/m 12,9 km/h (3 Bft)
30.10.2013 13:32 12,8 C 11,7 C 72 % 1023,2 hPa 0,0 l/m 2 min 0 min 0,6 UV-I 350 W/m 7,7 km/h (2 Bft)
30.10.2013 13:34 12,9 C 11,7 C 72 % 1023,2 hPa 0,0 l/m 2 min 0 min 0,6 UV-I 350 W/m 0,0 km/h (0 Bft)
30.10.2013 13:36 12,9 C 11,7 C 72 % 1023,1 hPa 0,0 l/m 2 min 0 min 0,6 UV-I 359 W/m 0,0 km/h (0 Bft)
30.10.2013 13:38 12,8 C 11,7 C 72 % 1023,2 hPa 0,0 l/m 2 min 0 min 0,6 UV-I 362 W/m 10,3 km/h (2 Bft)
30.10.2013 13:40 12,7 C 11,1 C 72 % 1023,2 hPa 0,0 l/m 2 min 0 min 0,5 UV-I 364 W/m 12,9 km/h (3 Bft)
30.10.2013 13:42 12,6 C 11,1 C 72 % 1023,2 hPa 0,0 l/m 2 min 0 min 0,5 UV-I 355 W/m 10,3 km/h (2 Bft)
30.10.2013 13:44 12,7 C 11,7 C 72 % 1023,2 hPa 0,0 l/m 2 min 0 min 0,5 UV-I 359 W/m 10,3 km/h (2 Bft)
30.10.2013 13:46 12,7 C 11,7 C 72 % 1023,2 hPa 0,0 l/m 2 min 0 min 0,5 UV-I 348 W/m 5,1 km/h (1 Bft)
30.10.2013 13:48 12,8 C 11,7 C 71 % 1023,2 hPa 0,0 l/m 2 min 0 min 0,5 UV-I 288 W/m 7,7 km/h (2 Bft)
30.10.2013 13:50 12,7 C 11,1 C 70 % 1023,2 hPa 0,0 l/m 0 min 0 min 0,0 UV-I 118 W/m 10,3 km/h (2 Bft)
30.10.2013 13:52 12,6 C 11,1 C 71 % 1023,2 hPa 0,0 l/m 2 min 0 min 0,5 UV-I 357 W/m 12,9 km/h (3 Bft)
30.10.2013 13:54 12,5 C 11,1 C 71 % 1023,2 hPa 0,0 l/m 2 min 0 min 0,0 UV-I 338 W/m 12,9 km/h (3 Bft)
30.10.2013 13:56 12,6 C 11,7 C 71 % 1023,1 hPa 0,0 l/m 2 min 0 min 0,5 UV-I 383 W/m 5,1 km/h (1 Bft)
30.10.2013 13:58 12,7 C 11,7 C 71 % 1023,1 hPa 0,0 l/m 2 min 0 min 0,5 UV-I 373 W/m 10,3 km/h (2 Bft)
30.10.2013 14:00 12,8 C 11,7 C 72 % 1023,1 hPa 0,0 l/m 2 min 0 min 0,5 UV-I 378 W/m 0,0 km/h (0 Bft)
30.10.2013 14:02 12,9 C 11,7 C 72 % 1023,2 hPa 0,0 l/m 2 min 0 min 0,5 UV-I 394 W/m 12,9 km/h (3 Bft)
30.10.2013 14:04 13,1 C 12,2 C 72 % 1023,2 hPa 0,0 l/m 2 min 0 min 0,0 UV-I 369 W/m 7,7 km/h (2 Bft)
30.10.2013 14:06 13,2 C 12,2 C 72 % 1023,2 hPa 0,0 l/m 2 min 0 min 0,0 UV-I 371 W/m 12,9 km/h (3 Bft)
30.10.2013 14:08 13,2 C 12,2 C 71 % 1023,2 hPa 0,0 l/m 2 min 0 min 0,0 UV-I 381 W/m 10,3 km/h (2 Bft)
30.10.2013 14:10 13,2 C 12,2 C 70 % 1023,1 hPa 0,0 l/m 2 min 0 min 0,0 UV-I 394 W/m 7,7 km/h (2 Bft)
30.10.2013 14:12 13,2 C 12,2 C 71 % 1023,1 hPa 0,0 l/m 0 min 0 min 0,0 UV-I 125 W/m 7,7 km/h (2 Bft)
30.10.2013 14:14 13,1 C 12,2 C 70 % 1023,1 hPa 0,0 l/m 0 min 0 min 0,0 UV-I 107 W/m 2,6 km/h (1 Bft)
30.10.2013 14:16 12,9 C 11,7 C 70 % 1023,0 hPa 0,0 l/m 0 min 0 min 0,0 UV-I 132 W/m 18,0 km/h (3 Bft)
30.10.2013 14:18 12,8 C 11,7 C 71 % 1023,1 hPa 0,0 l/m 2 min 0 min 0,0 UV-I 345 W/m 7,7 km/h (2 Bft)
30.10.2013 14:20 12,9 C 11,7 C 71 % 1023,1 hPa 0,0 l/m 2 min 0 min 0,0 UV-I 341 W/m 2,6 km/h (1 Bft)
30.10.2013 14:22 12,9 C 11,7 C 70 % 1023,2 hPa 0,0 l/m 2 min 0 min 0,0 UV-I 367 W/m 0,0 km/h (0 Bft)
30.10.2013 14:24 12,9 C 12,2 C 71 % 1023,0 hPa 0,0 l/m 2 min 0 min 0,0 UV-I 401 W/m 5,1 km/h (1 Bft)
30.10.2013 14:26 13,1 C 12,2 C 71 % 1023,1 hPa 0,0 l/m 2 min 0 min 0,0 UV-I 294 W/m 0,0 km/h (0 Bft)
30.10.2013 14:28 13,3 C 12,8 C 71 % 1023,1 hPa 0,0 l/m 2 min 0 min 0,0 UV-I 399 W/m 0,0 km/h (0 Bft)
30.10.2013 14:30 13,4 C 12,8 C 71 % 1023,1 hPa 0,0 l/m 2 min 0 min 0,0 UV-I 387 W/m 7,7 km/h (2 Bft)
30.10.2013 14:32 13,4 C 12,2 C 69 % 1023,1 hPa 0,0 l/m 0 min 0 min 0,0 UV-I 91 W/m 12,9 km/h (3 Bft)
30.10.2013 14:34 13,3 C 12,2 C 68 % 1023,2 hPa 0,0 l/m 2 min 0 min 0,0 UV-I 253 W/m 12,9 km/h (3 Bft)
30.10.2013 14:36 13,1 C 11,7 C 68 % 1023,1 hPa 0,0 l/m 0 min 0 min 0,0 UV-I 51 W/m 7,7 km/h (2 Bft)
30.10.2013 14:38 12,8 C 11,1 C 68 % 1023,2 hPa 0,0 l/m 0 min 0 min 0,0 UV-I 42 W/m 10,3 km/h (2 Bft)
30.10.2013 14:40 12,5 C 11,1 C 69 % 1023,1 hPa 0,0 l/m 0 min 0 min 0,0 UV-I 37 W/m 15,4 km/h (3 Bft)
30.10.2013 14:42 12,3 C 10,6 C 70 % 1023,2 hPa 0,0 l/m 0 min 0 min 0,0 UV-I 39 W/m 7,7 km/h (2 Bft)
30.10.2013 14:44 12,1 C 10,6 C 71 % 1023,3 hPa 0,0 l/m 0 min 0 min 0,0 UV-I 40 W/m 0,0 km/h (0 Bft)
30.10.2013 14:46 11,9 C 10,6 C 72 % 1023,1 hPa 0,0 l/m 0 min 0 min 0,0 UV-I 40 W/m 0,0 km/h (0 Bft)
30.10.2013 14:48 11,8 C 10,0 C 72 % 1023,2 hPa 0,0 l/m 0 min 0 min 0,0 UV-I 46 W/m 2,6 km/h (1 Bft)
30.10.2013 14:50 11,7 C 10,0 C 73 % 1023,2 hPa 0,0 l/m 0 min 0 min 0,0 UV-I 58 W/m 2,6 km/h (1 Bft)
30.10.2013 14:52 11,7 C 10,0 C 74 % 1023,2 hPa 0,0 l/m 2 min 0 min 0,0 UV-I 267 W/m 0,0 km/h (0 Bft)
30.10.2013 14:54 11,8 C 10,6 C 74 % 1023,1 hPa 0,0 l/m 2 min 0 min 0,0 UV-I 276 W/m 2,6 km/h (1 Bft)
30.10.2013 14:56 12,0 C 10,6 C 74 % 1023,2 hPa 0,0 l/m 2 min 0 min 0,0 UV-I 276 W/m 12,9 km/h (3 Bft)
30.10.2013 14:58 12,1 C 10,6 C 72 % 1023,1 hPa 0,0 l/m 0 min 0 min 0,0 UV-I 77 W/m 5,1 km/h (1 Bft)
30.10.2013 15:00 12,1 C 10,6 C 72 % 1023,2 hPa 0,0 l/m 0 min 0 min 0,0 UV-I 74 W/m 0,0 km/h (0 Bft)
30.10.2013 15:02 12,1 C 10,6 C 71 % 1023,1 hPa 0,0 l/m 2 min 0 min 0,0 UV-I 167 W/m 0,0 km/h (0 Bft)
30.10.2013 15:04 12,1 C 10,6 C 73 % 1023,1 hPa 0,0 l/m 2 min 0 min 0,0 UV-I 250 W/m 0,0 km/h (0 Bft)
30.10.2013 15:06 12,1 C 10,6 C 72 % 1023,1 hPa 0,0 l/m 0 min 0 min 0,0 UV-I 70 W/m 2,6 km/h (1 Bft)
30.10.2013 15:08 12,1 C 10,6 C 73 % 1023,1 hPa 0,0 l/m 0 min 0 min 0,0 UV-I 47 W/m 7,7 km/h (2 Bft)
30.10.2013 15:10 12,0 C 10,6 C 73 % 1023,1 hPa 0,0 l/m 0 min 0 min 0,0 UV-I 42 W/m 2,6 km/h (1 Bft)
30.10.2013 15:12 11,9 C 10,0 C 72 % 1023,2 hPa 0,0 l/m 0 min 0 min 0,0 UV-I 39 W/m 10,3 km/h (2 Bft)
30.10.2013 15:14 11,9 C 10,0 C 72 % 1023,2 hPa 0,0 l/m 0 min 0 min 0,0 UV-I 37 W/m 0,0 km/h (0 Bft)
30.10.2013 15:16 11,8 C 10,0 C 73 % 1023,2 hPa 0,0 l/m 0 min 0 min 0,0 UV-I 37 W/m 0,0 km/h (0 Bft)
30.10.2013 15:18 11,7 C 10,0 C 73 % 1023,2 hPa 0,0 l/m 2 min 0 min 0,0 UV-I 200 W/m 0,0 km/h (0 Bft)
30.10.2013 15:20 11,8 C 10,0 C 72 % 1023,2 hPa 0,0 l/m 2 min 0 min 0,0 UV-I 149 W/m 0,0 km/h (0 Bft)
30.10.2013 15:22 11,8 C 10,0 C 73 % 1023,2 hPa 0,0 l/m 2 min 0 min 0,0 UV-I 199 W/m 0,0 km/h (0 Bft)
30.10.2013 15:24 11,9 C 10,0 C 73 % 1023,2 hPa 0,0 l/m 2 min 0 min 0,0 UV-I 151 W/m 0,0 km/h (0 Bft)
30.10.2013 15:26 11,9 C 10,6 C 72 % 1023,3 hPa 0,0 l/m 2 min 0 min 0,0 UV-I 174 W/m 0,0 km/h (0 Bft)
30.10.2013 15:28 11,9 C 10,0 C 72 % 1023,3 hPa 0,0 l/m 2 min 0 min 0,0 UV-I 192 W/m 0,0 km/h (0 Bft)
30.10.2013 15:30 11,9 C 10,0 C 72 % 1023,2 hPa 0,0 l/m 2 min 0 min 0,0 UV-I 174 W/m 0,0 km/h (0 Bft)
30.10.2013 15:32 11,9 C 10,0 C 73 % 1023,3 hPa 0,0 l/m 0 min 0 min 0,0 UV-I 90 W/m 7,7 km/h (2 Bft)
30.10.2013 15:34 11,9 C 10,0 C 73 % 1023,2 hPa 0,0 l/m 2 min 0 min 0,0 UV-I 171 W/m 0,0 km/h (0 Bft)
30.10.2013 15:36 11,9 C 10,0 C 72 % 1023,2 hPa 0,0 l/m 0 min 0 min 0,0 UV-I 67 W/m 0,0 km/h (0 Bft)
30.10.2013 15:38 11,9 C 10,0 C 73 % 1023,2 hPa 0,0 l/m 0 min 0 min 0,0 UV-I 39 W/m 0,0 km/h (0 Bft)
30.10.2013 15:40 11,9 C 10,0 C 73 % 1023,2 hPa 0,0 l/m 0 min 0 min 0,0 UV-I 37 W/m 0,0 km/h (0 Bft)
30.10.2013 15:42 11,9 C 10,0 C 73 % 1023,1 hPa 0,0 l/m 0 min 0 min 0,0 UV-I 40 W/m 0,0 km/h (0 Bft)
30.10.2013 15:44 11,8 C 10,0 C 73 % 1023,2 hPa 0,0 l/m 0 min 0 min 0,0 UV-I 37 W/m 0,0 km/h (0 Bft)
30.10.2013 15:46 11,7 C 10,0 C 73 % 1023,2 hPa 0,0 l/m 0 min 0 min 0,0 UV-I 37 W/m 0,0 km/h (0 Bft)
30.10.2013 15:48 11,6 C 10,0 C 73 % 1023,2 hPa 0,0 l/m 0 min 0 min 0,0 UV-I 35 W/m 10,3 km/h (2 Bft)
30.10.2013 15:50 11,6 C 10,0 C 73 % 1023,1 hPa 0,0 l/m 0 min 0 min 0,0 UV-I 33 W/m 5,1 km/h (1 Bft)
30.10.2013 15:52 11,5 C 10,0 C 73 % 1023,1 hPa 0,0 l/m 0 min 0 min 0,0 UV-I 35 W/m 0,0 km/h (0 Bft)
30.10.2013 15:54 11,4 C 10,0 C 73 % 1023,2 hPa 0,0 l/m 0 min 0 min 0,0 UV-I 60 W/m 0,0 km/h (0 Bft)
30.10.2013 15:56 11,4 C 10,0 C 73 % 1023,2 hPa 0,0 l/m 2 min 0 min 0,0 UV-I 93 W/m 5,1 km/h (1 Bft)
30.10.2013 15:58 11,4 C 10,0 C 73 % 1023,2 hPa 0,0 l/m 0 min 0 min 0,0 UV-I 53 W/m 0,0 km/h (0 Bft)
30.10.2013 16:00 11,4 C 10,0 C 74 % 1023,2 hPa 0,0 l/m 0 min 0 min 0,0 UV-I 62 W/m 0,0 km/h (0 Bft)
30.10.2013 16:02 11,4 C 10,0 C 74 % 1023,3 hPa 0,0 l/m 0 min 0 min 0,0 UV-I 54 W/m 2,6 km/h (1 Bft)
30.10.2013 16:04 11,4 C 10,0 C 74 % 1023,2 hPa 0,0 l/m 0 min 0 min 0,0 UV-I 44 W/m 0,0 km/h (0 Bft)
30.10.2013 16:06 11,4 C 9,4 C 74 % 1023,3 hPa 0,0 l/m 0 min 0 min 0,0 UV-I 39 W/m 2,6 km/h (1 Bft)
30.10.2013 16:08 11,3 C 9,4 C 74 % 1023,3 hPa 0,0 l/m 0 min 0 min 0,0 UV-I 28 W/m 0,0 km/h (0 Bft)
30.10.2013 16:10 11,3 C 9,4 C 74 % 1023,3 hPa 0,0 l/m 0 min 0 min 0,0 UV-I 25 W/m 0,0 km/h (0 Bft)
30.10.2013 16:12 11,2 C 9,4 C 75 % 1023,2 hPa 0,0 l/m 0 min 0 min 0,0 UV-I 23 W/m 0,0 km/h (0 Bft)
30.10.2013 16:14 11,1 C 9,4 C 75 % 1023,2 hPa 0,0 l/m 0 min 0 min 0,0 UV-I 21 W/m 0,0 km/h (0 Bft)
30.10.2013 16:16 11,0 C 9,4 C 75 % 1023,3 hPa 0,0 l/m 0 min 0 min 0,0 UV-I 21 W/m 2,6 km/h (1 Bft)
30.10.2013 16:18 11,0 C 8,9 C 75 % 1023,3 hPa 0,0 l/m 0 min 0 min 0,0 UV-I 23 W/m 0,0 km/h (0 Bft)
30.10.2013 16:20 11,0 C 8,9 C 75 % 1023,3 hPa 0,0 l/m 0 min 0 min 0,0 UV-I 25 W/m 0,0 km/h (0 Bft)
30.10.2013 16:22 10,9 C 8,9 C 75 % 1023,3 hPa 0,0 l/m 0 min 0 min 0,0 UV-I 26 W/m 0,0 km/h (0 Bft)
30.10.2013 16:24 10,9 C 8,9 C 75 % 1023,3 hPa 0,0 l/m 0 min 0 min 0,0 UV-I 32 W/m 0,0 km/h (0 Bft)
30.10.2013 16:26 10,9 C 8,9 C 75 % 1023,3 hPa 0,0 l/m 0 min 0 min 0,0 UV-I 33 W/m 0,0 km/h (0 Bft)
30.10.2013 16:28 10,9 C 8,9 C 76 % 1023,4 hPa 0,0 l/m 0 min 0 min 0,0 UV-I 37 W/m 0,0 km/h (0 Bft)
30.10.2013 16:30 10,9 C 8,9 C 76 % 1023,4 hPa 0,0 l/m 0 min 0 min 0,0 UV-I 39 W/m 0,0 km/h (0 Bft)
30.10.2013 16:32 10,9 C 8,9 C 76 % 1023,4 hPa 0,0 l/m 0 min 0 min 0,0 UV-I 42 W/m 0,0 km/h (0 Bft)
30.10.2013 16:34 10,9 C 8,9 C 76 % 1023,3 hPa 0,0 l/m 0 min 0 min 0,0 UV-I 40 W/m 0,0 km/h (0 Bft)
30.10.2013 16:36 10,9 C 9,4 C 75 % 1023,3 hPa 0,0 l/m 0 min 0 min 0,0 UV-I 30 W/m 0,0 km/h (0 Bft)
30.10.2013 16:38 10,9 C 9,4 C 76 % 1023,4 hPa 0,0 l/m 0 min 0 min 0,0 UV-I 25 W/m 0,0 km/h (0 Bft)
30.10.2013 16:40 10,9 C 9,4 C 76 % 1023,4 hPa 0,0 l/m 0 min 0 min 0,0 UV-I 21 W/m 0,0 km/h (0 Bft)
30.10.2013 16:42 10,9 C 8,9 C 76 % 1023,4 hPa 0,0 l/m 0 min 0 min 0,0 UV-I 19 W/m 2,6 km/h (1 Bft)
30.10.2013 16:44 10,9 C 8,9 C 75 % 1023,5 hPa 0,0 l/m 0 min 0 min 0,0 UV-I 18 W/m 0,0 km/h (0 Bft)
30.10.2013 16:46 10,9 C 8,9 C 75 % 1023,5 hPa 0,0 l/m 0 min 0 min 0,0 UV-I 14 W/m 0,0 km/h (0 Bft)
30.10.2013 16:48 10,8 C 8,9 C 75 % 1023,5 hPa 0,0 l/m 0 min 0 min 0,0 UV-I 14 W/m 0,0 km/h (0 Bft)
30.10.2013 16:50 10,8 C 8,9 C 76 % 1023,5 hPa 0,0 l/m 0 min 0 min 0,0 UV-I 12 W/m 0,0 km/h (0 Bft)
30.10.2013 16:52 10,8 C 8,9 C 76 % 1023,5 hPa 0,0 l/m 0 min 0 min 0,0 UV-I 12 W/m 0,0 km/h (0 Bft)
30.10.2013 16:54 10,7 C 8,9 C 76 % 1023,5 hPa 0,0 l/m 0 min 0 min 0,0 UV-I 12 W/m 0,0 km/h (0 Bft)
30.10.2013 16:56 10,7 C 8,9 C 77 % 1023,6 hPa 0,0 l/m 0 min 0 min 0,0 UV-I 12 W/m 0,0 km/h (0 Bft)
30.10.2013 16:58 10,7 C 8,9 C 77 % 1023,6 hPa 0,0 l/m 0 min 0 min 0,0 UV-I 11 W/m 0,0 km/h (0 Bft)
30.10.2013 17:00 10,6 C 8,3 C 77 % 1023,6 hPa 0,0 l/m 0 min 0 min 0,0 UV-I 9 W/m 0,0 km/h (0 Bft)
30.10.2013 17:02 10,5 C 8,3 C 77 % 1023,6 hPa 0,0 l/m 0 min 0 min 0,0 UV-I 7 W/m 0,0 km/h (0 Bft)
30.10.2013 17:04 10,4 C 8,3 C 77 % 1023,6 hPa 0,0 l/m 0 min 0 min 0,0 UV-I 7 W/m 0,0 km/h (0 Bft)
30.10.2013 17:06 10,3 C 8,3 C 78 % 1023,6 hPa 0,0 l/m 0 min 0 min 0,0 UV-I 5 W/m 0,0 km/h (0 Bft)
30.10.2013 17:08 10,3 C 7,8 C 78 % 1023,6 hPa 0,0 l/m 0 min 0 min 0,0 UV-I 5 W/m 0,0 km/h (0 Bft)
30.10.2013 17:10 10,3 C 7,8 C 78 % 1023,6 hPa 0,0 l/m 0 min 0 min 0,0 UV-I 5 W/m 0,0 km/h (0 Bft)
30.10.2013 17:12 10,3 C 7,8 C 78 % 1023,6 hPa 0,0 l/m 0 min 0 min 0,0 UV-I 0 W/m 0,0 km/h (0 Bft)
30.10.2013 17:14 10,2 C 7,8 C 78 % 1023,6 hPa 0,0 l/m 0 min 0 min 0,0 UV-I 0 W/m 0,0 km/h (0 Bft)
30.10.2013 17:16 10,2 C 7,8 C 78 % 1023,5 hPa 0,0 l/m 0 min 0 min 0,0 UV-I 0 W/m 0,0 km/h (0 Bft)
30.10.2013 17:18 10,1 C 8,3 C 78 % 1023,6 hPa 0,0 l/m 0 min 0 min 0,0 UV-I 0 W/m 0,0 km/h (0 Bft)
30.10.2013 17:20 10,1 C 8,3 C 78 % 1023,7 hPa 0,0 l/m 0 min 0 min 0,0 UV-I 0 W/m 0,0 km/h (0 Bft)
30.10.2013 17:22 10,0 C 7,8 C 78 % 1023,7 hPa 0,0 l/m 0 min 0 min 0,0 UV-I 0 W/m 0,0 km/h (0 Bft)
30.10.2013 17:24 9,9 C 7,8 C 78 % 1023,7 hPa 0,0 l/m 0 min 0 min 0,0 UV-I 0 W/m 0,0 km/h (0 Bft)
30.10.2013 17:26 9,9 C 7,8 C 78 % 1023,7 hPa 0,0 l/m 0 min 0 min 0,0 UV-I 0 W/m 0,0 km/h (0 Bft)
30.10.2013 17:28 9,9 C 7,8 C 78 % 1023,7 hPa 0,0 l/m 0 min 0 min 0,0 UV-I 0 W/m 0,0 km/h (0 Bft)
30.10.2013 17:30 9,9 C 7,8 C 78 % 1023,8 hPa 0,0 l/m 0 min 0 min 0,0 UV-I 0 W/m 0,0 km/h (0 Bft)
30.10.2013 17:32 9,9 C 7,8 C 78 % 1023,8 hPa 0,0 l/m 0 min 0 min 0,0 UV-I 0 W/m 0,0 km/h (0 Bft)
30.10.2013 17:34 9,9 C 7,8 C 78 % 1023,8 hPa 0,0 l/m 0 min 0 min 0,0 UV-I 0 W/m 0,0 km/h (0 Bft)
30.10.2013 17:36 9,8 C 7,8 C 79 % 1023,8 hPa 0,0 l/m 0 min 0 min 0,0 UV-I 0 W/m 0,0 km/h (0 Bft)
30.10.2013 17:38 9,8 C 7,8 C 79 % 1023,7 hPa 0,0 l/m 0 min 0 min 0,0 UV-I 0 W/m 0,0 km/h (0 Bft)
30.10.2013 17:40 9,8 C 7,2 C 79 % 1023,8 hPa 0,0 l/m 0 min 0 min 0,0 UV-I 0 W/m 0,0 km/h (0 Bft)
30.10.2013 17:42 9,8 C 7,2 C 79 % 1023,9 hPa 0,0 l/m 0 min 0 min 0,0 UV-I 0 W/m 0,0 km/h (0 Bft)
30.10.2013 17:44 9,7 C 7,2 C 79 % 1023,9 hPa 0,0 l/m 0 min 0 min 0,0 UV-I 0 W/m 2,6 km/h (1 Bft)
30.10.2013 17:46 9,7 C 7,2 C 79 % 1023,9 hPa 0,0 l/m 0 min 0 min 0,0 UV-I 0 W/m 0,0 km/h (0 Bft)
30.10.2013 17:48 9,6 C 7,2 C 79 % 1023,9 hPa 0,0 l/m 0 min 0 min 0,0 UV-I 0 W/m 0,0 km/h (0 Bft)
30.10.2013 17:50 9,6 C 7,2 C 79 % 1024,0 hPa 0,0 l/m 0 min 0 min 0,0 UV-I 0 W/m 5,1 km/h (1 Bft)
30.10.2013 17:52 9,6 C 7,2 C 79 % 1023,9 hPa 0,0 l/m 0 min 0 min 0,0 UV-I 0 W/m 0,0 km/h (0 Bft)
30.10.2013 17:54 9,6 C 7,2 C 80 % 1023,9 hPa 0,0 l/m 0 min 0 min 0,0 UV-I 0 W/m 0,0 km/h (0 Bft)
30.10.2013 17:56 9,5 C 7,2 C 80 % 1023,9 hPa 0,0 l/m 0 min 0 min 0,0 UV-I 0 W/m 0,0 km/h (0 Bft)
30.10.2013 17:58 9,4 C 7,2 C 80 % 1024,0 hPa 0,0 l/m 0 min 0 min 0,0 UV-I 0 W/m 0,0 km/h (0 Bft)
30.10.2013 18:00 9,4 C 7,2 C 80 % 1024,0 hPa 0,0 l/m 0 min 0 min 0,0 UV-I 0 W/m 2,6 km/h (1 Bft)
30.10.2013 18:02 9,3 C 7,2 C 80 % 1024,1 hPa 0,0 l/m 0 min 0 min 0,0 UV-I 0 W/m 0,0 km/h (0 Bft)
30.10.2013 18:06 9,2 C 6,7 C 81 % 1024,1 hPa 0,0 l/m 0 min 0 min 0,0 UV-I 0 W/m 0,0 km/h (0 Bft)
30.10.2013 18:08 9,2 C 7,2 C 81 % 1024,1 hPa 0,0 l/m 0 min 0 min 0,0 UV-I 0 W/m 2,6 km/h (1 Bft)
30.10.2013 18:10 9,2 C 7,2 C 81 % 1024,1 hPa 0,0 l/m 0 min 0 min 0,0 UV-I 0 W/m 0,0 km/h (0 Bft)
30.10.2013 18:12 9,2 C 7,2 C 81 % 1024,1 hPa 0,0 l/m 0 min 0 min 0,0 UV-I 0 W/m 0,0 km/h (0 Bft)
30.10.2013 18:14 9,2 C 7,2 C 81 % 1024,2 hPa 0,0 l/m 0 min 0 min 0,0 UV-I 0 W/m 7,7 km/h (2 Bft)
30.10.2013 18:16 9,2 C 7,2 C 81 % 1024,2 hPa 0,0 l/m 0 min 0 min 0,0 UV-I 0 W/m 0,0 km/h (0 Bft)
30.10.2013 18:18 9,2 C 7,2 C 80 % 1024,2 hPa 0,0 l/m 0 min 0 min 0,0 UV-I 0 W/m 0,0 km/h (0 Bft)
30.10.2013 18:20 9,2 C 7,2 C 80 % 1024,1 hPa 0,0 l/m 0 min 0 min 0,0 UV-I 0 W/m 0,0 km/h (0 Bft)
30.10.2013 18:22 9,3 C 7,2 C 80 % 1024,2 hPa 0,0 l/m 0 min 0 min 0,0 UV-I 0 W/m 0,0 km/h (0 Bft)
30.10.2013 18:24 9,3 C 7,2 C 80 % 1024,2 hPa 0,0 l/m 0 min 0 min 0,0 UV-I 0 W/m 2,6 km/h (1 Bft)
30.10.2013 18:26 9,3 C 7,2 C 80 % 1024,2 hPa 0,0 l/m 0 min 0 min 0,0 UV-I 0 W/m 0,0 km/h (0 Bft)
30.10.2013 18:28 9,2 C 7,2 C 80 % 1024,3 hPa 0,0 l/m 0 min 0 min 0,0 UV-I 0 W/m 0,0 km/h (0 Bft)
30.10.2013 18:30 9,2 C 7,2 C 80 % 1024,3 hPa 0,0 l/m 0 min 0 min 0,0 UV-I 0 W/m 0,0 km/h (0 Bft)
30.10.2013 18:32 9,2 C 7,2 C 80 % 1024,3 hPa 0,0 l/m 0 min 0 min 0,0 UV-I 0 W/m 0,0 km/h (0 Bft)
30.10.2013 18:34 9,2 C 7,2 C 80 % 1024,3 hPa 0,0 l/m 0 min 0 min 0,0 UV-I 0 W/m 0,0 km/h (0 Bft)
30.10.2013 18:36 9,2 C 7,2 C 80 % 1024,3 hPa 0,0 l/m 0 min 0 min 0,0 UV-I 0 W/m 0,0 km/h (0 Bft)
30.10.2013 18:38 9,1 C 7,2 C 80 % 1024,2 hPa 0,0 l/m 0 min 0 min 0,0 UV-I 0 W/m 0,0 km/h (0 Bft)
30.10.2013 18:40 9,1 C 6,7 C 81 % 1024,3 hPa 0,0 l/m 0 min 0 min 0,0 UV-I 0 W/m 0,0 km/h (0 Bft)
30.10.2013 18:42 9,0 C 6,7 C 81 % 1024,3 hPa 0,0 l/m 0 min 0 min 0,0 UV-I 0 W/m 0,0 km/h (0 Bft)
30.10.2013 18:44 8,9 C 6,7 C 81 % 1024,3 hPa 0,0 l/m 0 min 0 min 0,0 UV-I 0 W/m 0,0 km/h (0 Bft)
30.10.2013 18:46 8,8 C 6,7 C 81 % 1024,3 hPa 0,0 l/m 0 min 0 min 0,0 UV-I 0 W/m 0,0 km/h (0 Bft)
30.10.2013 18:48 8,8 C 6,7 C 82 % 1024,3 hPa 0,0 l/m 0 min 0 min 0,0 UV-I 0 W/m 0,0 km/h (0 Bft)
30.10.2013 18:50 8,7 C 6,7 C 82 % 1024,3 hPa 0,0 l/m 0 min 0 min 0,0 UV-I 0 W/m 0,0 km/h (0 Bft)
30.10.2013 18:52 8,7 C 6,1 C 82 % 1024,3 hPa 0,0 l/m 0 min 0 min 0,0 UV-I 0 W/m 0,0 km/h (0 Bft)
30.10.2013 18:54 8,7 C 6,1 C 82 % 1024,2 hPa 0,0 l/m 0 min 0 min 0,0 UV-I 0 W/m 0,0 km/h (0 Bft)
30.10.2013 18:56 8,7 C 6,1 C 82 % 1024,2 hPa 0,0 l/m 0 min 0 min 0,0 UV-I 0 W/m 0,0 km/h (0 Bft)
30.10.2013 18:58 8,7 C 6,1 C 82 % 1024,3 hPa 0,0 l/m 0 min 0 min 0,0 UV-I 0 W/m 0,0 km/h (0 Bft)
30.10.2013 19:00 8,7 C 6,1 C 82 % 1024,3 hPa 0,0 l/m 0 min 0 min 0,0 UV-I 0 W/m 2,6 km/h (1 Bft)
30.10.2013 19:02 8,7 C 6,1 C 82 % 1024,4 hPa 0,0 l/m 0 min 0 min 0,0 UV-I 0 W/m 0,0 km/h (0 Bft)
30.10.2013 19:04 8,6 C 6,1 C 82 % 1024,4 hPa 0,0 l/m 0 min 0 min 0,0 UV-I 0 W/m 0,0 km/h (0 Bft)
30.10.2013 19:06 8,6 C 6,1 C 82 % 1024,3 hPa 0,0 l/m 0 min 0 min 0,0 UV-I 0 W/m 0,0 km/h (0 Bft)
30.10.2013 19:08 8,4 C 6,1 C 83 % 1024,3 hPa 0,0 l/m 0 min 0 min 0,0 UV-I 0 W/m 0,0 km/h (0 Bft)
30.10.2013 19:10 8,4 C 6,1 C 83 % 1024,3 hPa 0,0 l/m 0 min 0 min 0,0 UV-I 0 W/m 0,0 km/h (0 Bft)
30.10.2013 19:12 8,4 C 6,1 C 83 % 1024,3 hPa 0,0 l/m 0 min 0 min 0,0 UV-I 0 W/m 0,0 km/h (0 Bft)
30.10.2013 19:14 8,3 C 5,6 C 83 % 1024,3 hPa 0,0 l/m 0 min 0 min 0,0 UV-I 0 W/m 0,0 km/h (0 Bft)
30.10.2013 19:16 8,2 C 5,6 C 84 % 1024,3 hPa 0,0 l/m 0 min 0 min 0,0 UV-I 0 W/m 0,0 km/h (0 Bft)
30.10.2013 19:18 8,1 C 5,6 C 84 % 1024,3 hPa 0,0 l/m 0 min 0 min 0,0 UV-I 0 W/m 0,0 km/h (0 Bft)
30.10.2013 19:20 7,9 C 5,6 C 84 % 1024,4 hPa 0,0 l/m 0 min 0 min 0,0 UV-I 0 W/m 0,0 km/h (0 Bft)
30.10.2013 19:22 7,8 C 5,6 C 85 % 1024,4 hPa 0,0 l/m 0 min 0 min 0,0 UV-I 0 W/m 0,0 km/h (0 Bft)
30.10.2013 19:24 7,7 C 5,6 C 85 % 1024,3 hPa 0,0 l/m 0 min 0 min 0,0 UV-I 0 W/m 0,0 km/h (0 Bft)
30.10.2013 19:26 7,7 C 5,6 C 86 % 1024,4 hPa 0,0 l/m 0 min 0 min 0,0 UV-I 0 W/m 0,0 km/h (0 Bft)
30.10.2013 19:28 7,6 C 5,6 C 86 % 1024,4 hPa 0,0 l/m 0 min 0 min 0,0 UV-I 0 W/m 0,0 km/h (0 Bft)
30.10.2013 19:30 7,6 C 5,6 C 86 % 1024,5 hPa 0,0 l/m 0 min 0 min 0,0 UV-I 0 W/m 0,0 km/h (0 Bft)
30.10.2013 19:32 7,5 C 5,0 C 87 % 1024,4 hPa 0,0 l/m 0 min 0 min 0,0 UV-I 0 W/m 0,0 km/h (0 Bft)
30.10.2013 19:34 7,4 C 5,0 C 87 % 1024,4 hPa 0,0 l/m 0 min 0 min 0,0 UV-I 0 W/m 0,0 km/h (0 Bft)
30.10.2013 19:36 7,4 C 5,0 C 87 % 1024,4 hPa 0,0 l/m 0 min 0 min 0,0 UV-I 0 W/m 0,0 km/h (0 Bft)
30.10.2013 19:38 7,3 C 5,0 C 87 % 1024,5 hPa 0,0 l/m 0 min 0 min 0,0 UV-I 0 W/m 0,0 km/h (0 Bft)
30.10.2013 19:40 7,3 C 5,0 C 87 % 1024,5 hPa 0,0 l/m 0 min 0 min 0,0 UV-I 0 W/m 0,0 km/h (0 Bft)
30.10.2013 19:42 7,3 C 5,0 C 87 % 1024,4 hPa 0,0 l/m 0 min 0 min 0,0 UV-I 0 W/m 0,0 km/h (0 Bft)
30.10.2013 19:44 7,3 C 5,0 C 88 % 1024,4 hPa 0,0 l/m 0 min 0 min 0,0 UV-I 0 W/m 0,0 km/h (0 Bft)
30.10.2013 19:46 7,2 C 5,0 C 88 % 1024,5 hPa 0,0 l/m 0 min 0 min 0,0 UV-I 0 W/m 0,0 km/h (0 Bft)
30.10.2013 19:48 7,2 C 5,0 C 88 % 1024,5 hPa 0,0 l/m 0 min 0 min 0,0 UV-I 0 W/m 0,0 km/h (0 Bft)
30.10.2013 19:50 7,2 C 5,0 C 88 % 1024,5 hPa 0,0 l/m 0 min 0 min 0,0 UV-I 0 W/m 0,0 km/h (0 Bft)
30.10.2013 19:52 7,2 C 5,0 C 88 % 1024,5 hPa 0,0 l/m 0 min 0 min 0,0 UV-I 0 W/m 0,0 km/h (0 Bft)
30.10.2013 19:54 7,2 C 5,0 C 88 % 1024,5 hPa 0,0 l/m 0 min 0 min 0,0 UV-I 0 W/m 0,0 km/h (0 Bft)
30.10.2013 19:56 7,2 C 5,0 C 88 % 1024,5 hPa 0,0 l/m 0 min 0 min 0,0 UV-I 0 W/m 0,0 km/h (0 Bft)
30.10.2013 19:58 7,2 C 5,0 C 88 % 1024,5 hPa 0,0 l/m 0 min 0 min 0,0 UV-I 0 W/m 0,0 km/h (0 Bft)
30.10.2013 20:00 7,2 C 5,0 C 88 % 1024,5 hPa 0,0 l/m 0 min 0 min 0,0 UV-I 0 W/m 0,0 km/h (0 Bft)
30.10.2013 20:02 7,2 C 5,0 C 88 % 1024,5 hPa 0,0 l/m 0 min 0 min 0,0 UV-I 0 W/m 0,0 km/h (0 Bft)
30.10.2013 20:04 7,2 C 5,0 C 88 % 1024,4 hPa 0,0 l/m 0 min 0 min 0,0 UV-I 0 W/m 0,0 km/h (0 Bft)
30.10.2013 20:06 7,3 C 5,0 C 88 % 1024,4 hPa 0,0 l/m 0 min 0 min 0,0 UV-I 0 W/m 0,0 km/h (0 Bft)
30.10.2013 20:08 7,3 C 5,0 C 88 % 1024,4 hPa 0,0 l/m 0 min 0 min 0,0 UV-I 0 W/m 0,0 km/h (0 Bft)
30.10.2013 20:10 7,4 C 5,0 C 88 % 1024,4 hPa 0,0 l/m 0 min 0 min 0,0 UV-I 0 W/m 0,0 km/h (0 Bft)
30.10.2013 20:12 7,4 C 5,0 C 88 % 1024,4 hPa 0,0 l/m 0 min 0 min 0,0 UV-I 0 W/m 0,0 km/h (0 Bft)
30.10.2013 20:14 7,4 C 5,0 C 88 % 1024,4 hPa 0,0 l/m 0 min 0 min 0,0 UV-I 0 W/m 0,0 km/h (0 Bft)
30.10.2013 20:16 7,4 C 5,0 C 88 % 1024,5 hPa 0,0 l/m 0 min 0 min 0,0 UV-I 0 W/m 0,0 km/h (0 Bft)
30.10.2013 20:18 7,4 C 5,0 C 87 % 1024,5 hPa 0,0 l/m 0 min 0 min 0,0 UV-I 0 W/m 0,0 km/h (0 Bft)
30.10.2013 20:20 7,4 C 5,0 C 87 % 1024,4 hPa 0,0 l/m 0 min 0 min 0,0 UV-I 0 W/m 0,0 km/h (0 Bft)
30.10.2013 20:22 7,4 C 5,0 C 87 % 1024,5 hPa 0,0 l/m 0 min 0 min 0,0 UV-I 0 W/m 2,6 km/h (1 Bft)
30.10.2013 20:24 7,5 C 5,6 C 88 % 1024,5 hPa 0,0 l/m 0 min 0 min 0,0 UV-I 0 W/m 0,0 km/h (0 Bft)
30.10.2013 20:26 7,5 C 5,6 C 87 % 1024,6 hPa 0,0 l/m 0 min 0 min 0,0 UV-I 0 W/m 0,0 km/h (0 Bft)
30.10.2013 20:28 7,5 C 5,6 C 87 % 1024,5 hPa 0,0 l/m 0 min 0 min 0,0 UV-I 0 W/m 0,0 km/h (0 Bft)
30.10.2013 20:30 7,6 C 5,6 C 87 % 1024,6 hPa 0,0 l/m 0 min 0 min 0,0 UV-I 0 W/m 0,0 km/h (0 Bft)
30.10.2013 20:32 7,6 C 5,6 C 87 % 1024,6 hPa 0,0 l/m 0 min 0 min 0,0 UV-I 0 W/m 0,0 km/h (0 Bft)
30.10.2013 20:34 7,6 C 5,6 C 87 % 1024,6 hPa 0,0 l/m 0 min 0 min 0,0 UV-I 0 W/m 0,0 km/h (0 Bft)
30.10.2013 20:36 7,6 C 5,6 C 87 % 1024,6 hPa 0,0 l/m 0 min 0 min 0,0 UV-I 0 W/m 2,6 km/h (1 Bft)
30.10.2013 20:38 7,7 C 5,6 C 87 % 1024,6 hPa 0,0 l/m 0 min 0 min 0,0 UV-I 0 W/m 0,0 km/h (0 Bft)
30.10.2013 20:40 7,7 C 5,6 C 87 % 1024,6 hPa 0,0 l/m 0 min 0 min 0,0 UV-I 0 W/m 0,0 km/h (0 Bft)
30.10.2013 20:42 7,7 C 5,6 C 87 % 1024,6 hPa 0,0 l/m 0 min 0 min 0,0 UV-I 0 W/m 0,0 km/h (0 Bft)
30.10.2013 20:44 7,7 C 6,1 C 86 % 1024,7 hPa 0,0 l/m 0 min 0 min 0,0 UV-I 0 W/m 0,0 km/h (0 Bft)
30.10.2013 20:46 7,8 C 6,1 C 86 % 1024,7 hPa 0,0 l/m 0 min 0 min 0,0 UV-I 0 W/m 0,0 km/h (0 Bft)
30.10.2013 20:48 7,8 C 6,1 C 86 % 1024,7 hPa 0,0 l/m 0 min 0 min 0,0 UV-I 0 W/m 0,0 km/h (0 Bft)
30.10.2013 20:50 7,8 C 6,1 C 86 % 1024,7 hPa 0,0 l/m 0 min 0 min 0,0 UV-I 0 W/m 0,0 km/h (0 Bft)
30.10.2013 20:52 7,8 C 6,1 C 86 % 1024,8 hPa 0,0 l/m 0 min 0 min 0,0 UV-I 0 W/m 2,6 km/h (1 Bft)
30.10.2013 20:54 7,8 C 6,1 C 86 % 1024,8 hPa 0,0 l/m 0 min 0 min 0,0 UV-I 0 W/m 0,0 km/h (0 Bft)
30.10.2013 20:56 7,9 C 6,1 C 86 % 1024,8 hPa 0,0 l/m 0 min 0 min 0,0 UV-I 0 W/m 5,1 km/h (1 Bft)
30.10.2013 20:58 7,9 C 6,1 C 86 % 1024,7 hPa 0,0 l/m 0 min 0 min 0,0 UV-I 0 W/m 2,6 km/h (1 Bft)
30.10.2013 21:00 8,0 C 6,1 C 85 % 1024,7 hPa 0,0 l/m 0 min 0 min 0,0 UV-I 0 W/m 7,7 km/h (2 Bft)
30.10.2013 21:02 8,0 C 6,1 C 85 % 1024,7 hPa 0,0 l/m 0 min 0 min 0,0 UV-I 0 W/m 0,0 km/h (0 Bft)
30.10.2013 21:04 8,0 C 6,1 C 85 % 1024,8 hPa 0,0 l/m 0 min 0 min 0,0 UV-I 0 W/m 0,0 km/h (0 Bft)
30.10.2013 21:06 7,9 C 6,1 C 85 % 1024,8 hPa 0,0 l/m 0 min 0 min 0,0 UV-I 0 W/m 10,3 km/h (2 Bft)
30.10.2013 21:08 7,9 C 6,1 C 85 % 1024,8 hPa 0,0 l/m 0 min 0 min 0,0 UV-I 0 W/m 5,1 km/h (1 Bft)
30.10.2013 21:10 7,9 C 6,1 C 85 % 1024,8 hPa 0,0 l/m 0 min 0 min 0,0 UV-I 0 W/m 2,6 km/h (1 Bft)
30.10.2013 21:12 7,9 C 6,1 C 85 % 1024,9 hPa 0,0 l/m 0 min 0 min 0,0 UV-I 0 W/m 10,3 km/h (2 Bft)
30.10.2013 21:14 7,9 C 6,1 C 85 % 1024,8 hPa 0,0 l/m 0 min 0 min 0,0 UV-I 0 W/m 10,3 km/h (2 Bft)
30.10.2013 21:16 7,9 C 6,1 C 85 % 1024,9 hPa 0,0 l/m 0 min 0 min 0,0 UV-I 0 W/m 0,0 km/h (0 Bft)
30.10.2013 21:18 7,9 C 6,1 C 85 % 1024,9 hPa 0,0 l/m 0 min 0 min 0,0 UV-I 0 W/m 2,6 km/h (1 Bft)
30.10.2013 21:20 7,9 C 6,1 C 85 % 1024,9 hPa 0,0 l/m 0 min 0 min 0,0 UV-I 0 W/m 0,0 km/h (0 Bft)
30.10.2013 21:22 7,9 C 6,1 C 85 % 1024,9 hPa 0,0 l/m 0 min 0 min 0,0 UV-I 0 W/m 10,3 km/h (2 Bft)
30.10.2013 21:24 7,9 C 6,7 C 85 % 1025,0 hPa 0,0 l/m 0 min 0 min 0,0 UV-I 0 W/m 7,7 km/h (2 Bft)
30.10.2013 21:26 8,0 C 6,7 C 85 % 1024,9 hPa 0,0 l/m 0 min 0 min 0,0 UV-I 0 W/m 0,0 km/h (0 Bft)
30.10.2013 21:28 8,0 C 6,7 C 85 % 1025,0 hPa 0,0 l/m 0 min 0 min 0,0 UV-I 0 W/m 7,7 km/h (2 Bft)
30.10.2013 21:30 8,0 C 6,7 C 85 % 1025,0 hPa 0,0 l/m 0 min 0 min 0,0 UV-I 0 W/m 0,0 km/h (0 Bft)
30.10.2013 21:32 8,0 C 6,7 C 85 % 1025,0 hPa 0,0 l/m 0 min 0 min 0,0 UV-I 0 W/m 2,6 km/h (1 Bft)
30.10.2013 21:34 8,0 C 6,1 C 85 % 1025,0 hPa 0,0 l/m 0 min 0 min 0,0 UV-I 0 W/m 0,0 km/h (0 Bft)
30.10.2013 21:36 7,9 C 6,1 C 85 % 1025,1 hPa 0,0 l/m 0 min 0 min 0,0 UV-I 0 W/m 2,6 km/h (1 Bft)
30.10.2013 21:38 7,9 C 6,1 C 85 % 1025,0 hPa 0,0 l/m 0 min 0 min 0,0 UV-I 0 W/m 0,0 km/h (0 Bft)
30.10.2013 21:40 7,9 C 6,1 C 85 % 1025,0 hPa 0,0 l/m 0 min 0 min 0,0 UV-I 0 W/m 0,0 km/h (0 Bft)
30.10.2013 21:42 7,8 C 6,1 C 86 % 1025,0 hPa 0,0 l/m 0 min 0 min 0,0 UV-I 0 W/m 2,6 km/h (1 Bft)
30.10.2013 21:44 7,8 C 6,1 C 86 % 1025,0 hPa 0,0 l/m 0 min 0 min 0,0 UV-I 0 W/m 10,3 km/h (2 Bft)
30.10.2013 21:46 7,8 C 6,1 C 86 % 1025,0 hPa 0,0 l/m 0 min 0 min 0,0 UV-I 0 W/m 5,1 km/h (1 Bft)
30.10.2013 21:48 7,8 C 6,1 C 86 % 1025,0 hPa 0,0 l/m 0 min 0 min 0,0 UV-I 0 W/m 2,6 km/h (1 Bft)
30.10.2013 21:50 7,8 C 6,1 C 86 % 1025,1 hPa 0,0 l/m 0 min 0 min 0,0 UV-I 0 W/m 0,0 km/h (0 Bft)
30.10.2013 21:52 7,8 C 6,1 C 86 % 1025,1 hPa 0,0 l/m 0 min 0 min 0,0 UV-I 0 W/m 5,1 km/h (1 Bft)
30.10.2013 21:54 7,8 C 6,1 C 86 % 1025,2 hPa 0,0 l/m 0 min 0 min 0,0 UV-I 0 W/m 7,7 km/h (2 Bft)
30.10.2013 21:56 7,8 C 6,1 C 86 % 1025,1 hPa 0,0 l/m 0 min 0 min 0,0 UV-I 0 W/m 5,1 km/h (1 Bft)
30.10.2013 21:58 7,8 C 6,1 C 86 % 1025,2 hPa 0,0 l/m 0 min 0 min 0,0 UV-I 0 W/m 2,6 km/h (1 Bft)
30.10.2013 22:00 7,7 C 6,1 C 86 % 1025,3 hPa 0,0 l/m 0 min 0 min 0,0 UV-I 0 W/m 0,0 km/h (0 Bft)
30.10.2013 22:02 7,7 C 6,1 C 86 % 1025,2 hPa 0,0 l/m 0 min 0 min 0,0 UV-I 0 W/m 7,7 km/h (2 Bft)
30.10.2013 22:04 7,7 C 6,1 C 86 % 1025,2 hPa 0,0 l/m 0 min 0 min 0,0 UV-I 0 W/m 7,7 km/h (2 Bft)
30.10.2013 22:06 7,7 C 6,1 C 86 % 1025,2 hPa 0,0 l/m 0 min 0 min 0,0 UV-I 0 W/m 2,6 km/h (1 Bft)
30.10.2013 22:08 7,6 C 6,1 C 86 % 1025,1 hPa 0,0 l/m 0 min 0 min 0,0 UV-I 0 W/m 0,0 km/h (0 Bft)
30.10.2013 22:10 7,6 C 6,1 C 86 % 1025,2 hPa 0,0 l/m 0 min 0 min 0,0 UV-I 0 W/m 0,0 km/h (0 Bft)
30.10.2013 22:12 7,6 C 6,1 C 86 % 1025,2 hPa 0,0 l/m 0 min 0 min 0,0 UV-I 0 W/m 0,0 km/h (0 Bft)
30.10.2013 22:14 7,6 C 6,1 C 86 % 1025,3 hPa 0,0 l/m 0 min 0 min 0,0 UV-I 0 W/m 0,0 km/h (0 Bft)
30.10.2013 22:16 7,6 C 6,1 C 86 % 1025,3 hPa 0,0 l/m 0 min 0 min 0,0 UV-I 0 W/m 0,0 km/h (0 Bft)
30.10.2013 22:18 7,5 C 6,1 C 86 % 1025,3 hPa 0,0 l/m 0 min 0 min 0,0 UV-I 0 W/m 7,7 km/h (2 Bft)
30.10.2013 22:20 7,5 C 6,1 C 86 % 1025,3 hPa 0,0 l/m 0 min 0 min 0,0 UV-I 0 W/m 2,6 km/h (1 Bft)
30.10.2013 22:22 7,5 C 6,1 C 87 % 1025,3 hPa 0,0 l/m 0 min 0 min 0,0 UV-I 0 W/m 0,0 km/h (0 Bft)
30.10.2013 22:24 7,5 C 6,1 C 86 % 1025,3 hPa 0,0 l/m 0 min 0 min 0,0 UV-I 0 W/m 0,0 km/h (0 Bft)
30.10.2013 22:26 7,4 C 6,1 C 86 % 1025,2 hPa 0,0 l/m 0 min 0 min 0,0 UV-I 0 W/m 0,0 km/h (0 Bft)
30.10.2013 22:28 7,4 C 5,6 C 86 % 1025,2 hPa 0,0 l/m 0 min 0 min 0,0 UV-I 0 W/m 0,0 km/h (0 Bft)
30.10.2013 22:30 7,3 C 5,6 C 87 % 1025,2 hPa 0,0 l/m 0 min 0 min 0,0 UV-I 0 W/m 2,6 km/h (1 Bft)
30.10.2013 22:32 7,3 C 5,6 C 87 % 1025,1 hPa 0,0 l/m 0 min 0 min 0,0 UV-I 0 W/m 0,0 km/h (0 Bft)
30.10.2013 22:34 7,3 C 5,6 C 87 % 1025,3 hPa 0,0 l/m 0 min 0 min 0,0 UV-I 0 W/m 0,0 km/h (0 Bft)
30.10.2013 22:36 7,3 C 5,6 C 87 % 1025,2 hPa 0,0 l/m 0 min 0 min 0,0 UV-I 0 W/m 0,0 km/h (0 Bft)
30.10.2013 22:38 7,3 C 5,6 C 87 % 1025,2 hPa 0,0 l/m 0 min 0 min 0,0 UV-I 0 W/m 0,0 km/h (0 Bft)
30.10.2013 22:40 7,3 C 5,6 C 87 % 1025,3 hPa 0,0 l/m 0 min 0 min 0,0 UV-I 0 W/m 0,0 km/h (0 Bft)
30.10.2013 22:42 7,3 C 5,6 C 87 % 1025,2 hPa 0,0 l/m 0 min 0 min 0,0 UV-I 0 W/m 0,0 km/h (0 Bft)
30.10.2013 22:44 7,2 C 5,6 C 87 % 1025,2 hPa 0,0 l/m 0 min 0 min 0,0 UV-I 0 W/m 2,6 km/h (1 Bft)
30.10.2013 22:46 7,2 C 5,6 C 87 % 1025,2 hPa 0,0 l/m 0 min 0 min 0,0 UV-I 0 W/m 0,0 km/h (0 Bft)
30.10.2013 22:48 7,2 C 5,6 C 87 % 1025,2 hPa 0,0 l/m 0 min 0 min 0,0 UV-I 0 W/m 0,0 km/h (0 Bft)
30.10.2013 22:50 7,2 C 5,6 C 87 % 1025,2 hPa 0,0 l/m 0 min 0 min 0,0 UV-I 0 W/m 0,0 km/h (0 Bft)
30.10.2013 22:52 7,2 C 5,6 C 87 % 1025,2 hPa 0,0 l/m 0 min 0 min 0,0 UV-I 0 W/m 0,0 km/h (0 Bft)
30.10.2013 22:54 7,1 C 5,6 C 87 % 1025,1 hPa 0,0 l/m 0 min 0 min 0,0 UV-I 0 W/m 0,0 km/h (0 Bft)
30.10.2013 22:56 7,1 C 5,6 C 88 % 1025,1 hPa 0,0 l/m 0 min 0 min 0,0 UV-I 0 W/m 0,0 km/h (0 Bft)
30.10.2013 22:58 7,1 C 5,6 C 88 % 1025,1 hPa 0,0 l/m 0 min 0 min 0,0 UV-I 0 W/m 0,0 km/h (0 Bft)
30.10.2013 23:00 7,0 C 5,6 C 88 % 1025,1 hPa 0,0 l/m 0 min 0 min 0,0 UV-I 0 W/m 0,0 km/h (0 Bft)
30.10.2013 23:02 7,0 C 5,6 C 88 % 1025,1 hPa 0,0 l/m 0 min 0 min 0,0 UV-I 0 W/m 0,0 km/h (0 Bft)
30.10.2013 23:04 7,0 C 5,6 C 88 % 1025,0 hPa 0,0 l/m 0 min 0 min 0,0 UV-I 0 W/m 0,0 km/h (0 Bft)
30.10.2013 23:06 7,0 C 5,6 C 88 % 1025,1 hPa 0,0 l/m 0 min 0 min 0,0 UV-I 0 W/m 2,6 km/h (1 Bft)
30.10.2013 23:08 7,0 C 5,6 C 88 % 1025,1 hPa 0,0 l/m 0 min 0 min 0,0 UV-I 0 W/m 0,0 km/h (0 Bft)
30.10.2013 23:10 7,0 C 5,6 C 88 % 1025,1 hPa 0,0 l/m 0 min 0 min 0,0 UV-I 0 W/m 7,7 km/h (2 Bft)
30.10.2013 23:12 6,9 C 5,6 C 88 % 1025,1 hPa 0,0 l/m 0 min 0 min 0,0 UV-I 0 W/m 5,1 km/h (1 Bft)
30.10.2013 23:14 6,9 C 5,6 C 88 % 1025,1 hPa 0,0 l/m 0 min 0 min 0,0 UV-I 0 W/m 2,6 km/h (1 Bft)
30.10.2013 23:16 6,9 C 5,6 C 88 % 1025,1 hPa 0,0 l/m 0 min 0 min 0,0 UV-I 0 W/m 7,7 km/h (2 Bft)
30.10.2013 23:18 6,8 C 5,6 C 89 % 1025,0 hPa 0,0 l/m 0 min 0 min 0,0 UV-I 0 W/m 0,0 km/h (0 Bft)
30.10.2013 23:20 6,8 C 5,0 C 89 % 1025,0 hPa 0,0 l/m 0 min 0 min 0,0 UV-I 0 W/m 0,0 km/h (0 Bft)
30.10.2013 23:22 6,8 C 5,0 C 89 % 1025,1 hPa 0,0 l/m 0 min 0 min 0,0 UV-I 0 W/m 2,6 km/h (1 Bft)
30.10.2013 23:24 6,8 C 5,0 C 89 % 1025,2 hPa 0,0 l/m 0 min 0 min 0,0 UV-I 0 W/m 0,0 km/h (0 Bft)
30.10.2013 23:26 6,8 C 5,0 C 89 % 1025,2 hPa 0,0 l/m 0 min 0 min 0,0 UV-I 0 W/m 0,0 km/h (0 Bft)
30.10.2013 23:28 6,8 C 5,0 C 89 % 1025,2 hPa 0,0 l/m 0 min 0 min 0,0 UV-I 0 W/m 0,0 km/h (0 Bft)
30.10.2013 23:30 6,8 C 5,0 C 89 % 1025,2 hPa 0,0 l/m 0 min 0 min 0,0 UV-I 0 W/m 0,0 km/h (0 Bft)
30.10.2013 23:32 6,7 C 5,0 C 89 % 1025,3 hPa 0,0 l/m 0 min 0 min 0,0 UV-I 0 W/m 0,0 km/h (0 Bft)
30.10.2013 23:34 6,7 C 5,0 C 89 % 1025,2 hPa 0,0 l/m 0 min 0 min 0,0 UV-I 0 W/m 0,0 km/h (0 Bft)
30.10.2013 23:36 6,7 C 5,0 C 89 % 1025,2 hPa 0,0 l/m 0 min 0 min 0,0 UV-I 0 W/m 0,0 km/h (0 Bft)
30.10.2013 23:38 6,7 C 5,0 C 89 % 1025,3 hPa 0,0 l/m 0 min 0 min 0,0 UV-I 0 W/m 0,0 km/h (0 Bft)
30.10.2013 23:40 6,6 C 5,0 C 89 % 1025,4 hPa 0,0 l/m 0 min 0 min 0,0 UV-I 0 W/m 0,0 km/h (0 Bft)
30.10.2013 23:42 6,6 C 5,0 C 89 % 1025,4 hPa 0,0 l/m 0 min 0 min 0,0 UV-I 0 W/m 0,0 km/h (0 Bft)
30.10.2013 23:44 6,6 C 5,0 C 89 % 1025,3 hPa 0,0 l/m 0 min 0 min 0,0 UV-I 0 W/m 0,0 km/h (0 Bft)
30.10.2013 23:46 6,6 C 5,0 C 89 % 1025,4 hPa 0,0 l/m 0 min 0 min 0,0 UV-I 0 W/m 0,0 km/h (0 Bft)
30.10.2013 23:48 6,6 C 5,0 C 89 % 1025,3 hPa 0,0 l/m 0 min 0 min 0,0 UV-I 0 W/m 0,0 km/h (0 Bft)
30.10.2013 23:50 6,6 C 5,0 C 90 % 1025,3 hPa 0,0 l/m 0 min 0 min 0,0 UV-I 0 W/m 0,0 km/h (0 Bft)
30.10.2013 23:52 6,6 C 5,0 C 90 % 1025,3 hPa 0,0 l/m 0 min 0 min 0,0 UV-I 0 W/m 0,0 km/h (0 Bft)
30.10.2013 23:54 6,6 C 5,0 C 90 % 1025,3 hPa 0,0 l/m 0 min 0 min 0,0 UV-I 0 W/m 0,0 km/h (0 Bft)
30.10.2013 23:56 6,5 C 5,0 C 90 % 1025,4 hPa 0,0 l/m 0 min 0 min 0,0 UV-I 0 W/m 0,0 km/h (0 Bft)
30.10.2013 23:58 6,5 C 5,0 C 90 % 1025,5 hPa 0,0 l/m 0 min 0 min 0,0 UV-I 0 W/m 2,6 km/h (1 Bft)
_ Min-Zeit 07:50 06:48 14:34 00:00 - - - - - 00:12
Minimum _ 6,2 C 5,0 C 68 % 1016,6 hPa - - - - - 0,0 km/h (0 Bft)
_ Max-Zeit 14:32 14:28 01:54 23:58 00:00 08:50 00:00 12:40 12:48 10:04
Maximum _ 13,5 C 12,8 C 94 % 1025,5 hPa 0,0 l/m 2 min 0 min 0,8 UV-I 464 W/m 20,6 km/h
S (4 Bft)
Durchschnitt _ 8,7 C 7,3 C 85 % 1022,0 hPa #0,0 l/m #5:56 h #0 min. 0,6 UV-I 201 W/m 4,5 km/h (1 Bft)
© 2013 W. Hausmann